Observation data for Fort McKavett on 08/01/2020      Previous  Date       Current Mesonet Observations  Soil Data  Daily Summary Page  Observations in Plain Language
KMC1 010500Z 25001KT 24/19 A3007 RMK A01 T02440188  RH  071%=      5-min Rain = 0
KMC1 010501Z 27001KT 24/19 A3007 RMK A01 T02440188  RH  071%=      5-min Rain = 0
KMC1 010502Z 26001KT 24/19 A3007 RMK A01 T02440188  RH  071%=      5-min Rain = 0
KMC1 010503Z 27002KT 24/19 A3007 RMK A01 T02440188  RH  071%=      5-min Rain = 0
KMC1 010504Z 27002KT 24/19 A3007 RMK A01 T02440188  RH  071%=      5-min Rain = 0
KMC1 010505Z 27002KT 24/19 A3007 RMK A01 T02440188  RH  071%=      5-min Rain = 0
KMC1 010506Z 28001KT 24/19 A3007 RMK A01 T02440189  RH  071%=      5-min Rain = 0
KMC1 010507Z 29002KT 24/19 A3007 RMK A01 T02440188  RH  071%=      5-min Rain = 0
KMC1 010508Z 29003KT 24/19 A3007 RMK A01 T02440188  RH  071%=      5-min Rain = 0
KMC1 010509Z 28003KT 24/19 A3007 RMK A01 T02440188  RH  071%=      5-min Rain = 0
KMC1 010510Z 28003KT 24/19 A3007 RMK A01 T02440188  RH  071%=      5-min Rain = 0
KMC1 010511Z 28002KT 24/19 A3007 RMK A01 T02440188  RH  071%=      5-min Rain = 0
KMC1 010512Z 27003KT 24/19 A3007 RMK A01 T02440188  RH  071%=      5-min Rain = 0
KMC1 010513Z 28002KT 24/19 A3006 RMK A01 T02430188  RH  071%=      5-min Rain = 0
KMC1 010514Z 27002KT 24/19 A3006 RMK A01 T02430188  RH  071%=      5-min Rain = 0
KMC1 010515Z 27001KT 24/19 A3006 RMK A01 T02430188  RH  071%=      5-min Rain = 0
KMC1 010516Z 27001KT 24/19 A3006 RMK A01 T02420188  RH  071%=      5-min Rain = 0
KMC1 010517Z 28001KT 24/19 A3006 RMK A01 T02420188  RH  072%=      5-min Rain = 0
KMC1 010518Z 28001KT 24/19 A3006 RMK A01 T02420188  RH  072%=      5-min Rain = 0
KMC1 010519Z 28001KT 24/19 A3006 RMK A01 T02420188  RH  072%=      5-min Rain = 0
KMC1 010520Z 29002KT 24/19 A3006 RMK A01 T02410188  RH  072%=      5-min Rain = 0
KMC1 010521Z 28002KT 24/19 A3006 RMK A01 T02410188  RH  072%=      5-min Rain = 0
KMC1 010522Z 29002KT 24/19 A3006 RMK A01 T02410188  RH  072%=      5-min Rain = 0
KMC1 010523Z 29002KT 24/19 A3006 RMK A01 T02410188  RH  072%=      5-min Rain = 0
KMC1 010524Z 29002KT 24/19 A3006 RMK A01 T02410188  RH  072%=      5-min Rain = 0
KMC1 010525Z 30003KT 24/19 A3006 RMK A01 T02400187  RH  072%=      5-min Rain = 0
KMC1 010526Z 30003KT 24/19 A3006 RMK A01 T02400188  RH  072%=      5-min Rain = 0
KMC1 010527Z 31003KT 24/19 A3006 RMK A01 T02400187  RH  072%=      5-min Rain = 0
KMC1 010528Z 31003KT 24/19 A3006 RMK A01 T02400188  RH  073%=      5-min Rain = 0
KMC1 010529Z 31003KT 24/19 A3006 RMK A01 T02390188  RH  073%=      5-min Rain = 0
KMC1 010530Z 31002KT 24/19 A3006 RMK A01 T02390188  RH  073%=      5-min Rain = 0
KMC1 010531Z 31002KT 24/19 A3006 RMK A01 T02390188  RH  073%=      5-min Rain = 0
KMC1 010532Z 30002KT 24/19 A3006 RMK A01 T02390188  RH  073%=      5-min Rain = 0
KMC1 010533Z 31002KT 24/19 A3006 RMK A01 T02400189  RH  073%=      5-min Rain = 0
KMC1 010534Z 30001KT 24/19 A3006 RMK A01 T02400189  RH  073%=      5-min Rain = 0
KMC1 010535Z 29001KT 24/19 A3006 RMK A01 T02390188  RH  073%=      5-min Rain = 0
KMC1 010536Z 29002KT 24/19 A3006 RMK A01 T02390188  RH  073%=      5-min Rain = 0
KMC1 010537Z 30002KT 24/19 A3005 RMK A01 T02390188  RH  073%=      5-min Rain = 0
KMC1 010538Z 30002KT 24/19 A3005 RMK A01 T02390188  RH  073%=      5-min Rain = 0
KMC1 010539Z 29003KT 24/19 A3005 RMK A01 T02390188  RH  073%=      5-min Rain = 0
KMC1 010540Z 29003KT 24/19 A3005 RMK A01 T02380188  RH  073%=      5-min Rain = 0
KMC1 010541Z 29003KT 24/19 A3005 RMK A01 T02380188  RH  073%=      5-min Rain = 0
KMC1 010542Z 29003KT 24/19 A3005 RMK A01 T02380188  RH  074%=      5-min Rain = 0
KMC1 010543Z 29002KT 24/19 A3005 RMK A01 T02380189  RH  074%=      5-min Rain = 0
KMC1 010544Z 28002KT 24/19 A3006 RMK A01 T02380189  RH  074%=      5-min Rain = 0
KMC1 010545Z 28002KT 24/19 A3006 RMK A01 T02380188  RH  074%=      5-min Rain = 0
KMC1 010546Z 29002KT 24/19 A3006 RMK A01 T02380189  RH  074%=      5-min Rain = 0
KMC1 010547Z 29002KT 24/19 A3006 RMK A01 T02380189  RH  074%=      5-min Rain = 0
KMC1 010548Z 29002KT 24/19 A3006 RMK A01 T02370188  RH  074%=      5-min Rain = 0
KMC1 010549Z 29002KT 24/19 A3006 RMK A01 T02370189  RH  074%=      5-min Rain = 0
KMC1 010550Z 28002KT 24/19 A3006 RMK A01 T02370189  RH  074%=      5-min Rain = 0
KMC1 010551Z 28002KT 24/19 A3006 RMK A01 T02370188  RH  074%=      5-min Rain = 0
KMC1 010552Z 28002KT 24/19 A3006 RMK A01 T02370189  RH  074%=      5-min Rain = 0
KMC1 010553Z 28002KT 24/19 A3006 RMK A01 T02360188  RH  074%=      5-min Rain = 0
KMC1 010554Z 28002KT 24/19 A3006 RMK A01 T02360189  RH  075%=      5-min Rain = 0
KMC1 010555Z 28002KT 24/19 A3006 RMK A01 T02360189  RH  075%=      5-min Rain = 0
KMC1 010556Z 27002KT 24/19 A3006 RMK A01 T02360189  RH  075%=      5-min Rain = 0
KMC1 010557Z 26002KT 24/19 A3006 RMK A01 T02360189  RH  075%=      5-min Rain = 0
KMC1 010558Z 26002KT 24/19 A3006 RMK A01 T02360189  RH  075%=      5-min Rain = 0
KMC1 010559Z 26001KT 24/19 A3006 RMK A01 T02360189  RH  075%=      5-min Rain = 0
KMC1 010600Z 26002KT 24/19 A3007 RMK A01 T02360189  RH  075%=      5-min Rain = 0
KMC1 010601Z 27002KT 24/19 A3007 RMK A01 T02350189  RH  075%=      5-min Rain = 0
KMC1 010602Z 27002KT 24/19 A3007 RMK A01 T02350189  RH  075%=      5-min Rain = 0
KMC1 010603Z 26001KT 24/19 A3007 RMK A01 T02350189  RH  075%=      5-min Rain = 0
KMC1 010604Z 26001KT 24/19 A3007 RMK A01 T02350188  RH  075%=      5-min Rain = 0
KMC1 010605Z 26001KT 24/19 A3007 RMK A01 T02350189  RH  075%=      5-min Rain = 0
KMC1 010606Z 26002KT 23/19 A3007 RMK A01 T02340189  RH  075%=      5-min Rain = 0
KMC1 010607Z 26001KT 23/19 A3007 RMK A01 T02340189  RH  076%=      5-min Rain = 0
KMC1 010608Z 26002KT 23/19 A3007 RMK A01 T02340189  RH  076%=      5-min Rain = 0
KMC1 010609Z 26001KT 23/19 A3007 RMK A01 T02340189  RH  076%=      5-min Rain = 0
KMC1 010610Z 26001KT 23/19 A3007 RMK A01 T02340189  RH  076%=      5-min Rain = 0
KMC1 010611Z 26002KT 23/19 A3007 RMK A01 T02340189  RH  076%=      5-min Rain = 0
KMC1 010612Z 26002KT 23/19 A3007 RMK A01 T02340189  RH  076%=      5-min Rain = 0
KMC1 010613Z 26002KT 23/19 A3007 RMK A01 T02340189  RH  076%=      5-min Rain = 0
KMC1 010614Z 25001KT 23/19 A3007 RMK A01 T02340189  RH  076%=      5-min Rain = 0
KMC1 010615Z 26002KT 23/19 A3007 RMK A01 T02330188  RH  076%=      5-min Rain = 0
KMC1 010616Z 26002KT 23/19 A3007 RMK A01 T02330188  RH  076%=      5-min Rain = 0
KMC1 010617Z 26002KT 23/19 A3007 RMK A01 T02330188  RH  076%=      5-min Rain = 0
KMC1 010618Z 27002KT 23/19 A3007 RMK A01 T02320188  RH  076%=      5-min Rain = 0
KMC1 010619Z 27002KT 23/19 A3007 RMK A01 T02320188  RH  076%=      5-min Rain = 0
KMC1 010620Z 26002KT 23/19 A3007 RMK A01 T02320188  RH  076%=      5-min Rain = 0
KMC1 010621Z 26001KT 23/19 A3007 RMK A01 T02320187  RH  076%=      5-min Rain = 0
KMC1 010622Z 27001KT 23/19 A3007 RMK A01 T02310187  RH  076%=      5-min Rain = 0
KMC1 010623Z 26001KT 23/19 A3007 RMK A01 T02310188  RH  076%=      5-min Rain = 0
KMC1 010624Z 26001KT 23/19 A3007 RMK A01 T02310188  RH  077%=      5-min Rain = 0
KMC1 010625Z 26001KT 23/19 A3007 RMK A01 T02310188  RH  077%=      5-min Rain = 0
KMC1 010626Z 26001KT 23/19 A3007 RMK A01 T02310188  RH  076%=      5-min Rain = 0
KMC1 010627Z 26001KT 23/19 A3007 RMK A01 T02310187  RH  077%=      5-min Rain = 0
KMC1 010628Z 25001KT 23/19 A3007 RMK A01 T02300187  RH  076%=      5-min Rain = 0
KMC1 010629Z 25001KT 23/19 A3007 RMK A01 T02300187  RH  077%=      5-min Rain = 0
KMC1 010630Z 25001KT 23/19 A3007 RMK A01 T02300187  RH  077%=      5-min Rain = 0
KMC1 010631Z 26001KT 23/19 A3007 RMK A01 T02300187  RH  077%=      5-min Rain = 0
KMC1 010632Z 25001KT 23/19 A3007 RMK A01 T02300187  RH  077%=      5-min Rain = 0
KMC1 010633Z 24001KT 23/19 A3007 RMK A01 T02290187  RH  077%=      5-min Rain = 0
KMC1 010634Z 23001KT 23/19 A3007 RMK A01 T02290186  RH  077%=      5-min Rain = 0
KMC1 010635Z 23002KT 23/19 A3007 RMK A01 T02290186  RH  077%=      5-min Rain = 0
KMC1 010636Z 23002KT 23/19 A3007 RMK A01 T02290186  RH  077%=      5-min Rain = 0
KMC1 010637Z 23002KT 23/19 A3007 RMK A01 T02280185  RH  077%=      5-min Rain = 0
KMC1 010638Z 23002KT 23/19 A3007 RMK A01 T02280185  RH  077%=      5-min Rain = 0
KMC1 010639Z 23002KT 23/19 A3007 RMK A01 T02280185  RH  077%=      5-min Rain = 0
KMC1 010640Z 23002KT 23/19 A3007 RMK A01 T02280186  RH  077%=      5-min Rain = 0
KMC1 010641Z 23001KT 23/19 A3007 RMK A01 T02280186  RH  077%=      5-min Rain = 0
KMC1 010642Z 22001KT 23/19 A3007 RMK A01 T02270186  RH  077%=      5-min Rain = 0
KMC1 010643Z 21001KT 23/19 A3007 RMK A01 T02270187  RH  078%=      5-min Rain = 0
KMC1 010644Z 21001KT 23/19 A3007 RMK A01 T02270187  RH  078%=      5-min Rain = 0
KMC1 010645Z 21001KT 23/19 A3007 RMK A01 T02270186  RH  077%=      5-min Rain = 0
KMC1 010646Z 22001KT 23/19 A3007 RMK A01 T02270185  RH  077%=      5-min Rain = 0
KMC1 010647Z 23001KT 23/18 A3007 RMK A01 T02270184  RH  077%=      5-min Rain = 0
KMC1 010648Z 23001KT 23/19 A3007 RMK A01 T02270185  RH  077%=      5-min Rain = 0
KMC1 010649Z 23001KT 23/18 A3007 RMK A01 T02270184  RH  077%=      5-min Rain = 0
KMC1 010650Z 22001KT 23/18 A3007 RMK A01 T02260184  RH  077%=      5-min Rain = 0
KMC1 010651Z 22001KT 23/19 A3007 RMK A01 T02260185  RH  078%=      5-min Rain = 0
KMC1 010652Z 22001KT 23/19 A3007 RMK A01 T02260186  RH  078%=      5-min Rain = 0
KMC1 010653Z 22001KT 23/19 A3007 RMK A01 T02250186  RH  078%=      5-min Rain = 0
KMC1 010654Z 22001KT 23/19 A3007 RMK A01 T02250186  RH  079%=      5-min Rain = 0
KMC1 010655Z 22000KT 23/19 A3007 RMK A01 T02250187  RH  079%=      5-min Rain = 0
KMC1 010656Z 20000KT 23/19 A3006 RMK A01 T02250187  RH  079%=      5-min Rain = 0
KMC1 010657Z 20000KT 23/19 A3006 RMK A01 T02250187  RH  079%=      5-min Rain = 0
KMC1 010658Z 19001KT 23/19 A3006 RMK A01 T02250187  RH  079%=      5-min Rain = 0
KMC1 010659Z 18001KT 23/19 A3006 RMK A01 T02250186  RH  078%=      5-min Rain = 0
KMC1 010700Z 17001KT 23/19 A3006 RMK A01 T02250186  RH  079%=      5-min Rain = 0
KMC1 010701Z 17001KT 23/19 A3006 RMK A01 T02250185  RH  078%=      5-min Rain = 0
KMC1 010702Z 17001KT 23/18 A3006 RMK A01 T02250183  RH  077%=      5-min Rain = 0
KMC1 010703Z 17001KT 23/18 A3006 RMK A01 T02250184  RH  078%=      5-min Rain = 0
KMC1 010704Z 17001KT 22/18 A3006 RMK A01 T02240183  RH  078%=      5-min Rain = 0
KMC1 010705Z 17001KT 22/18 A3006 RMK A01 T02240183  RH  078%=      5-min Rain = 0
KMC1 010706Z 17001KT 22/18 A3006 RMK A01 T02240183  RH  078%=      5-min Rain = 0
KMC1 010707Z 17001KT 22/18 A3006 RMK A01 T02230184  RH  078%=      5-min Rain = 0
KMC1 010708Z 17001KT 22/18 A3006 RMK A01 T02220183  RH  078%=      5-min Rain = 0
KMC1 010709Z 17001KT 22/18 A3006 RMK A01 T02230184  RH  079%=      5-min Rain = 0
KMC1 010710Z 17000KT 22/19 A3006 RMK A01 T02220185  RH  079%=      5-min Rain = 0
KMC1 010711Z 00000KT 22/19 A3006 RMK A01 T02230185  RH  079%=      5-min Rain = 0
KMC1 010712Z 00000KT 22/19 A3006 RMK A01 T02220185  RH  079%=      5-min Rain = 0
KMC1 010713Z 00000KT 22/19 A3006 RMK A01 T02220186  RH  080%=      5-min Rain = 0
KMC1 010714Z 00000KT 22/19 A3006 RMK A01 T02230187  RH  080%=      5-min Rain = 0
KMC1 010715Z 00000KT 22/19 A3006 RMK A01 T02230186  RH  080%=      5-min Rain = 0
KMC1 010716Z 00000KT 22/19 A3006 RMK A01 T02230185  RH  079%=      5-min Rain = 0
KMC1 010717Z 00000KT 22/19 A3006 RMK A01 T02230185  RH  079%=      5-min Rain = 0
KMC1 010718Z 00000KT 22/19 A3007 RMK A01 T02230185  RH  079%=      5-min Rain = 0
KMC1 010719Z 00000KT 22/19 A3007 RMK A01 T02240186  RH  079%=      5-min Rain = 0
KMC1 010720Z 00000KT 22/19 A3007 RMK A01 T02230186  RH  079%=      5-min Rain = 0
KMC1 010721Z 00000KT 22/19 A3007 RMK A01 T02230186  RH  080%=      5-min Rain = 0
KMC1 010722Z 00000KT 22/19 A3007 RMK A01 T02230187  RH  080%=      5-min Rain = 0
KMC1 010723Z 00000KT 22/19 A3007 RMK A01 T02240187  RH  080%=      5-min Rain = 0
KMC1 010724Z 00000KT 22/19 A3007 RMK A01 T02230187  RH  080%=      5-min Rain = 0
KMC1 010725Z 00000KT 22/19 A3007 RMK A01 T02230187  RH  080%=      5-min Rain = 0
KMC1 010726Z 00000KT 22/19 A3007 RMK A01 T02230187  RH  080%=      5-min Rain = 0
KMC1 010727Z 00000KT 22/19 A3007 RMK A01 T02230187  RH  080%=      5-min Rain = 0
KMC1 010728Z 00000KT 22/19 A3006 RMK A01 T02230187  RH  080%=      5-min Rain = 0
KMC1 010729Z 00000KT 22/19 A3006 RMK A01 T02240188  RH  080%=      5-min Rain = 0
KMC1 010730Z 00000KT 22/19 A3006 RMK A01 T02240188  RH  080%=      5-min Rain = 0
KMC1 010731Z 00000KT 22/19 A3006 RMK A01 T02240187  RH  080%=      5-min Rain = 0
KMC1 010732Z 00000KT 22/19 A3006 RMK A01 T02240187  RH  080%=      5-min Rain = 0
KMC1 010733Z 00000KT 22/19 A3006 RMK A01 T02240188  RH  080%=      5-min Rain = 0
KMC1 010734Z 00000KT 22/19 A3006 RMK A01 T02240187  RH  080%=      5-min Rain = 0
KMC1 010735Z 00000KT 22/19 A3006 RMK A01 T02230185  RH  079%=      5-min Rain = 0
KMC1 010736Z 00000KT 22/18 A3006 RMK A01 T02220183  RH  079%=      5-min Rain = 0
KMC1 010737Z 00000KT 22/18 A3006 RMK A01 T02210183  RH  079%=      5-min Rain = 0
KMC1 010738Z 00000KT 22/18 A3006 RMK A01 T02210182  RH  079%=      5-min Rain = 0
KMC1 010739Z 31001KT 22/19 A3006 RMK A01 T02210185  RH  080%=      5-min Rain = 0
KMC1 010740Z 31001KT 22/19 A3006 RMK A01 T02210185  RH  080%=      5-min Rain = 0
KMC1 010741Z 31001KT 22/19 A3006 RMK A01 T02200185  RH  081%=      5-min Rain = 0
KMC1 010742Z 31002KT 22/19 A3006 RMK A01 T02200186  RH  081%=      5-min Rain = 0
KMC1 010743Z 31002KT 22/19 A3006 RMK A01 T02210185  RH  080%=      5-min Rain = 0
KMC1 010744Z 31002KT 22/18 A3006 RMK A01 T02210184  RH  080%=      5-min Rain = 0
KMC1 010745Z 32002KT 22/18 A3006 RMK A01 T02210184  RH  080%=      5-min Rain = 0
KMC1 010746Z 32002KT 22/18 A3006 RMK A01 T02210182  RH  079%=      5-min Rain = 0
KMC1 010747Z 32002KT 22/18 A3006 RMK A01 T02210181  RH  078%=      5-min Rain = 0
KMC1 010748Z 33002KT 22/18 A3006 RMK A01 T02200180  RH  078%=      5-min Rain = 0
KMC1 010749Z 33002KT 22/18 A3006 RMK A01 T02210181  RH  078%=      5-min Rain = 0
KMC1 010750Z 34002KT 22/18 A3006 RMK A01 T02210181  RH  078%=      5-min Rain = 0
KMC1 010751Z 35002KT 22/18 A3006 RMK A01 T02210182  RH  079%=      5-min Rain = 0
KMC1 010752Z 34002KT 22/19 A3006 RMK A01 T02200185  RH  080%=      5-min Rain = 0
KMC1 010753Z 34002KT 22/19 A3006 RMK A01 T02200186  RH  081%=      5-min Rain = 0
KMC1 010754Z 34002KT 22/19 A3006 RMK A01 T02200186  RH  081%=      5-min Rain = 0
KMC1 010755Z 34001KT 22/19 A3006 RMK A01 T02200186  RH  081%=      5-min Rain = 0
KMC1 010756Z 34002KT 22/19 A3006 RMK A01 T02200187  RH  081%=      5-min Rain = 0
KMC1 010757Z 34002KT 22/19 A3006 RMK A01 T02190187  RH  082%=      5-min Rain = 0
KMC1 010758Z 35002KT 22/19 A3006 RMK A01 T02190187  RH  082%=      5-min Rain = 0
KMC1 010759Z 35002KT 22/19 A3006 RMK A01 T02190186  RH  082%=      5-min Rain = 0
KMC1 010800Z 35002KT 22/19 A3006 RMK A01 T02190187  RH  082%=      5-min Rain = 0
KMC1 010801Z 35002KT 22/19 A3006 RMK A01 T02190187  RH  082%=      5-min Rain = 0
KMC1 010802Z 00002KT 22/19 A3006 RMK A01 T02190186  RH  082%=      5-min Rain = 0
KMC1 010803Z 36002KT 22/19 A3006 RMK A01 T02190186  RH  082%=      5-min Rain = 0
KMC1 010804Z 00001KT 22/19 A3006 RMK A01 T02180186  RH  082%=      5-min Rain = 0
KMC1 010805Z 00001KT 22/19 A3006 RMK A01 T02180186  RH  082%=      5-min Rain = 0
KMC1 010806Z 00002KT 22/19 A3006 RMK A01 T02180186  RH  082%=      5-min Rain = 0
KMC1 010807Z 36002KT 22/19 A3006 RMK A01 T02180186  RH  082%=      5-min Rain = 0
KMC1 010808Z 36002KT 22/19 A3006 RMK A01 T02180186  RH  082%=      5-min Rain = 0
KMC1 010809Z 36002KT 22/19 A3006 RMK A01 T02180186  RH  082%=      5-min Rain = 0
KMC1 010810Z 00003KT 22/19 A3006 RMK A01 T02180185  RH  082%=      5-min Rain = 0
KMC1 010811Z 00003KT 22/19 A3006 RMK A01 T02190186  RH  082%=      5-min Rain = 0
KMC1 010812Z 00003KT 22/19 A3006 RMK A01 T02190186  RH  081%=      5-min Rain = 0
KMC1 010813Z 00003KT 22/19 A3006 RMK A01 T02200186  RH  081%=      5-min Rain = 0
KMC1 010814Z 00003KT 22/19 A3006 RMK A01 T02200185  RH  081%=      5-min Rain = 0
KMC1 010815Z 00003KT 22/19 A3006 RMK A01 T02200185  RH  081%=      5-min Rain = 0
KMC1 010816Z 36003KT 22/19 A3006 RMK A01 T02210185  RH  080%=      5-min Rain = 0
KMC1 010817Z 00003KT 22/19 A3006 RMK A01 T02210185  RH  080%=      5-min Rain = 0
KMC1 010818Z 01004KT 22/19 A3006 RMK A01 T02210185  RH  080%=      5-min Rain = 0
KMC1 010819Z 01004KT 22/19 A3006 RMK A01 T02220185  RH  080%=      5-min Rain = 0
KMC1 010820Z 01003KT 22/19 A3006 RMK A01 T02220185  RH  079%=      5-min Rain = 0
KMC1 010821Z 01003KT 22/18 A3005 RMK A01 T02220184  RH  079%=      5-min Rain = 0
KMC1 010822Z 00003KT 22/18 A3005 RMK A01 T02220184  RH  079%=      5-min Rain = 0
KMC1 010823Z 01003KT 22/18 A3005 RMK A01 T02210184  RH  079%=      5-min Rain = 0
KMC1 010824Z 00003KT 22/18 A3005 RMK A01 T02210183  RH  079%=      5-min Rain = 0
KMC1 010825Z 00002KT 22/18 A3005 RMK A01 T02200183  RH  080%=      5-min Rain = 0
KMC1 010826Z 35003KT 22/18 A3005 RMK A01 T02200183  RH  080%=      5-min Rain = 0
KMC1 010827Z 35003KT 22/18 A3005 RMK A01 T02200183  RH  080%=      5-min Rain = 0
KMC1 010828Z 35003KT 22/18 A3005 RMK A01 T02190183  RH  080%=      5-min Rain = 0
KMC1 010829Z 36002KT 22/18 A3005 RMK A01 T02190183  RH  080%=      5-min Rain = 0
KMC1 010830Z 36003KT 22/18 A3005 RMK A01 T02190182  RH  080%=      5-min Rain = 0
KMC1 010831Z 01002KT 22/18 A3005 RMK A01 T02190182  RH  080%=      5-min Rain = 0
KMC1 010832Z 01003KT 22/18 A3005 RMK A01 T02180179  RH  078%=      5-min Rain = 0
KMC1 010833Z 00002KT 22/18 A3005 RMK A01 T02160178  RH  079%=      5-min Rain = 0
KMC1 010834Z 00002KT 21/18 A3005 RMK A01 T02140178  RH  079%=      5-min Rain = 0
KMC1 010835Z 01001KT 21/18 A3005 RMK A01 T02130177  RH  080%=      5-min Rain = 0
KMC1 010836Z 36001KT 21/18 A3005 RMK A01 T02110178  RH  081%=      5-min Rain = 0
KMC1 010837Z 35001KT 21/18 A3005 RMK A01 T02110180  RH  082%=      5-min Rain = 0
KMC1 010838Z 35001KT 21/18 A3005 RMK A01 T02110180  RH  083%=      5-min Rain = 0
KMC1 010839Z 35002KT 21/18 A3005 RMK A01 T02100180  RH  083%=      5-min Rain = 0
KMC1 010840Z 35002KT 21/18 A3005 RMK A01 T02100181  RH  083%=      5-min Rain = 0
KMC1 010841Z 35002KT 21/18 A3005 RMK A01 T02100181  RH  083%=      5-min Rain = 0
KMC1 010842Z 36001KT 21/18 A3005 RMK A01 T02100180  RH  083%=      5-min Rain = 0
KMC1 010843Z 35001KT 21/18 A3005 RMK A01 T02100181  RH  083%=      5-min Rain = 0
KMC1 010844Z 35001KT 21/18 A3005 RMK A01 T02100181  RH  084%=      5-min Rain = 0
KMC1 010845Z 36001KT 21/18 A3004 RMK A01 T02090180  RH  083%=      5-min Rain = 0
KMC1 010846Z 36001KT 21/18 A3004 RMK A01 T02100181  RH  084%=      5-min Rain = 0
KMC1 010847Z 36001KT 21/18 A3005 RMK A01 T02100181  RH  084%=      5-min Rain = 0
KMC1 010848Z 01001KT 21/18 A3005 RMK A01 T02100181  RH  083%=      5-min Rain = 0
KMC1 010849Z 01001KT 21/18 A3004 RMK A01 T02100181  RH  083%=      5-min Rain = 0
KMC1 010850Z 02001KT 21/18 A3004 RMK A01 T02100182  RH  084%=      5-min Rain = 0
KMC1 010851Z 00001KT 21/18 A3004 RMK A01 T02100181  RH  083%=      5-min Rain = 0
KMC1 010852Z 03001KT 21/18 A3004 RMK A01 T02110181  RH  083%=      5-min Rain = 0
KMC1 010853Z 04001KT 21/18 A3005 RMK A01 T02100182  RH  084%=      5-min Rain = 0
KMC1 010854Z 04001KT 21/18 A3005 RMK A01 T02110183  RH  084%=      5-min Rain = 0
KMC1 010855Z 03000KT 21/18 A3004 RMK A01 T02120183  RH  083%=      5-min Rain = 0
KMC1 010856Z 03000KT 21/18 A3004 RMK A01 T02120181  RH  082%=      5-min Rain = 0
KMC1 010857Z 00000KT 21/18 A3004 RMK A01 T02110179  RH  082%=      5-min Rain = 0
KMC1 010858Z 00000KT 21/18 A3004 RMK A01 T02110180  RH  082%=      5-min Rain = 0
KMC1 010859Z 00000KT 21/18 A3004 RMK A01 T02100180  RH  083%=      5-min Rain = 0
KMC1 010900Z 00000KT 21/18 A3004 RMK A01 T02090180  RH  083%=      5-min Rain = 0
KMC1 010901Z 00000KT 21/18 A3004 RMK A01 T02090180  RH  084%=      5-min Rain = 0
KMC1 010902Z 00000KT 21/18 A3004 RMK A01 T02090182  RH  084%=      5-min Rain = 0
KMC1 010903Z 00000KT 21/18 A3004 RMK A01 T02090181  RH  084%=      5-min Rain = 0
KMC1 010904Z 00000KT 21/18 A3004 RMK A01 T02090182  RH  085%=      5-min Rain = 0
KMC1 010905Z 00000KT 21/18 A3004 RMK A01 T02090182  RH  085%=      5-min Rain = 0
KMC1 010906Z 00000KT 21/18 A3004 RMK A01 T02090182  RH  085%=      5-min Rain = 0
KMC1 010907Z 00000KT 21/18 A3004 RMK A01 T02090182  RH  085%=      5-min Rain = 0
KMC1 010908Z 00000KT 21/18 A3004 RMK A01 T02100182  RH  084%=      5-min Rain = 0
KMC1 010909Z 00000KT 21/18 A3004 RMK A01 T02100182  RH  084%=      5-min Rain = 0
KMC1 010910Z 11000KT 21/18 A3004 RMK A01 T02100182  RH  084%=      5-min Rain = 0
KMC1 010911Z 00000KT 21/18 A3004 RMK A01 T02090181  RH  084%=      5-min Rain = 0
KMC1 010912Z 00000KT 21/18 A3004 RMK A01 T02090181  RH  084%=      5-min Rain = 0
KMC1 010913Z 00000KT 21/18 A3004 RMK A01 T02080182  RH  085%=      5-min Rain = 0
KMC1 010914Z 00000KT 21/18 A3004 RMK A01 T02080182  RH  085%=      5-min Rain = 0
KMC1 010915Z 00000KT 21/18 A3004 RMK A01 T02080182  RH  085%=      5-min Rain = 0
KMC1 010916Z 00000KT 21/18 A3005 RMK A01 T02070182  RH  085%=      5-min Rain = 0
KMC1 010917Z 00000KT 21/18 A3005 RMK A01 T02070182  RH  086%=      5-min Rain = 0
KMC1 010918Z 00000KT 21/18 A3005 RMK A01 T02070182  RH  086%=      5-min Rain = 0
KMC1 010919Z 00000KT 21/18 A3005 RMK A01 T02070182  RH  086%=      5-min Rain = 0
KMC1 010920Z 17000KT 21/18 A3005 RMK A01 T02070182  RH  085%=      5-min Rain = 0
KMC1 010921Z 20000KT 21/18 A3005 RMK A01 T02070181  RH  085%=      5-min Rain = 0
KMC1 010922Z 21000KT 21/18 A3005 RMK A01 T02060181  RH  085%=      5-min Rain = 0
KMC1 010923Z 22001KT 21/18 A3005 RMK A01 T02060182  RH  086%=      5-min Rain = 0
KMC1 010924Z 23001KT 21/18 A3005 RMK A01 T02060182  RH  086%=      5-min Rain = 0
KMC1 010925Z 23001KT 21/18 A3005 RMK A01 T02060181  RH  086%=      5-min Rain = 0
KMC1 010926Z 25002KT 21/18 A3005 RMK A01 T02050181  RH  086%=      5-min Rain = 0
KMC1 010927Z 25002KT 21/18 A3005 RMK A01 T02050180  RH  086%=      5-min Rain = 0
KMC1 010928Z 25002KT 21/18 A3005 RMK A01 T02050180  RH  086%=      5-min Rain = 0
KMC1 010929Z 25001KT 21/18 A3005 RMK A01 T02050181  RH  086%=      5-min Rain = 0
KMC1 010930Z 25001KT 21/18 A3005 RMK A01 T02050182  RH  087%=      5-min Rain = 0
KMC1 010931Z 25001KT 20/18 A3005 RMK A01 T02040181  RH  087%=      5-min Rain = 0
KMC1 010932Z 25001KT 21/18 A3005 RMK A01 T02050181  RH  086%=      5-min Rain = 0
KMC1 010933Z 25001KT 21/18 A3005 RMK A01 T02050181  RH  086%=      5-min Rain = 0
KMC1 010934Z 25001KT 21/18 A3005 RMK A01 T02050181  RH  086%=      5-min Rain = 0
KMC1 010935Z 26001KT 21/18 A3005 RMK A01 T02050182  RH  086%=      5-min Rain = 0
KMC1 010936Z 27001KT 21/18 A3005 RMK A01 T02050181  RH  086%=      5-min Rain = 0
KMC1 010937Z 26001KT 21/18 A3005 RMK A01 T02050182  RH  087%=      5-min Rain = 0
KMC1 010938Z 27001KT 21/18 A3005 RMK A01 T02050183  RH  087%=      5-min Rain = 0
KMC1 010939Z 27001KT 21/18 A3005 RMK A01 T02060182  RH  086%=      5-min Rain = 0
KMC1 010940Z 27001KT 21/18 A3005 RMK A01 T02060179  RH  085%=      5-min Rain = 0
KMC1 010941Z 26001KT 21/18 A3005 RMK A01 T02060178  RH  084%=      5-min Rain = 0
KMC1 010942Z 26001KT 21/18 A3005 RMK A01 T02050178  RH  085%=      5-min Rain = 0
KMC1 010943Z 25001KT 21/18 A3005 RMK A01 T02050180  RH  085%=      5-min Rain = 0
KMC1 010944Z 25001KT 20/18 A3005 RMK A01 T02040178  RH  085%=      5-min Rain = 0
KMC1 010945Z 24000KT 20/18 A3005 RMK A01 T02040177  RH  085%=      5-min Rain = 0
KMC1 010946Z 00000KT 20/18 A3005 RMK A01 T02040178  RH  085%=      5-min Rain = 0
KMC1 010947Z 00000KT 20/18 A3005 RMK A01 T02030180  RH  086%=      5-min Rain = 0
KMC1 010948Z 00000KT 20/18 A3005 RMK A01 T02030181  RH  087%=      5-min Rain = 0
KMC1 010949Z 00000KT 20/18 A3005 RMK A01 T02030181  RH  087%=      5-min Rain = 0
KMC1 010950Z 00000KT 20/18 A3005 RMK A01 T02020182  RH  088%=      5-min Rain = 0
KMC1 010951Z 17001KT 20/18 A3005 RMK A01 T02020181  RH  088%=      5-min Rain = 0
KMC1 010952Z 17001KT 20/18 A3005 RMK A01 T02010176  RH  086%=      5-min Rain = 0
KMC1 010953Z 17001KT 20/17 A3005 RMK A01 T02000174  RH  085%=      5-min Rain = 0
KMC1 010954Z 17001KT 20/18 A3005 RMK A01 T02000177  RH  087%=      5-min Rain = 0
KMC1 010955Z 17002KT 20/18 A3005 RMK A01 T01990179  RH  088%=      5-min Rain = 0
KMC1 010956Z 18002KT 20/18 A3005 RMK A01 T02000180  RH  088%=      5-min Rain = 0
KMC1 010957Z 19001KT 20/18 A3005 RMK A01 T02000180  RH  088%=      5-min Rain = 0
KMC1 010958Z 19002KT 20/18 A3004 RMK A01 T01990179  RH  088%=      5-min Rain = 0
KMC1 010959Z 19002KT 20/18 A3004 RMK A01 T01990179  RH  088%=      5-min Rain = 0
KMC1 011000Z 20003KT 20/18 A3005 RMK A01 T01990179  RH  088%=      5-min Rain = 0
KMC1 011001Z 20003KT 20/18 A3005 RMK A01 T01990178  RH  088%=      5-min Rain = 0
KMC1 011002Z 20004KT 20/18 A3005 RMK A01 T01980177  RH  087%=      5-min Rain = 0
KMC1 011003Z 19004KT 20/18 A3005 RMK A01 T01980177  RH  087%=      5-min Rain = 0
KMC1 011004Z 19005KT 20/18 A3005 RMK A01 T01980178  RH  088%=      5-min Rain = 0
KMC1 011005Z 19005KT 20/18 A3005 RMK A01 T01980178  RH  088%=      5-min Rain = 0
KMC1 011006Z 19006KT 20/18 A3005 RMK A01 T01980178  RH  088%=      5-min Rain = 0
KMC1 011007Z 19006KT 20/18 A3005 RMK A01 T01980178  RH  088%=      5-min Rain = 0
KMC1 011008Z 19005KT 20/18 A3005 RMK A01 T01980178  RH  088%=      5-min Rain = 0
KMC1 011009Z 19005KT 20/18 A3005 RMK A01 T01980177  RH  088%=      5-min Rain = 0
KMC1 011010Z 20004KT 20/18 A3005 RMK A01 T01970177  RH  088%=      5-min Rain = 0
KMC1 011011Z 20003KT 20/18 A3005 RMK A01 T01970178  RH  089%=      5-min Rain = 0
KMC1 011012Z 21004KT 20/18 A3005 RMK A01 T01970178  RH  089%=      5-min Rain = 0
KMC1 011013Z 20004KT 20/18 A3005 RMK A01 T01970178  RH  089%=      5-min Rain = 0
KMC1 011014Z 21005KT 20/18 A3005 RMK A01 T01980179  RH  089%=      5-min Rain = 0
KMC1 011015Z 21004KT 20/18 A3005 RMK A01 T01980179  RH  089%=      5-min Rain = 0
KMC1 011016Z 21004KT 20/18 A3005 RMK A01 T01990180  RH  089%=      5-min Rain = 0
KMC1 011017Z 20005KT 20/18 A3005 RMK A01 T02000180  RH  088%=      5-min Rain = 0
KMC1 011018Z 19004KT 20/18 A3005 RMK A01 T02010180  RH  088%=      5-min Rain = 0
KMC1 011019Z 20005KT 20/18 A3005 RMK A01 T02010179  RH  087%=      5-min Rain = 0
KMC1 011020Z 20005KT 20/18 A3005 RMK A01 T02010179  RH  087%=      5-min Rain = 0
KMC1 011021Z 19004KT 20/18 A3005 RMK A01 T02010180  RH  087%=      5-min Rain = 0
KMC1 011022Z 20004KT 20/18 A3005 RMK A01 T02020180  RH  087%=      5-min Rain = 0
KMC1 011023Z 19004KT 20/18 A3005 RMK A01 T02020179  RH  087%=      5-min Rain = 0
KMC1 011024Z 19004KT 20/18 A3005 RMK A01 T02020180  RH  087%=      5-min Rain = 0
KMC1 011025Z 20003KT 20/18 A3005 RMK A01 T02020180  RH  087%=      5-min Rain = 0
KMC1 011026Z 20003KT 20/18 A3005 RMK A01 T02020180  RH  087%=      5-min Rain = 0
KMC1 011027Z 20003KT 20/18 A3005 RMK A01 T02020180  RH  087%=      5-min Rain = 0
KMC1 011028Z 20004KT 20/18 A3006 RMK A01 T02020179  RH  087%=      5-min Rain = 0
KMC1 011029Z 21004KT 20/18 A3005 RMK A01 T02020179  RH  087%=      5-min Rain = 0
KMC1 011030Z 21005KT 20/18 A3005 RMK A01 T02030180  RH  087%=      5-min Rain = 0
KMC1 011031Z 22004KT 20/18 A3005 RMK A01 T02020179  RH  087%=      5-min Rain = 0
KMC1 011032Z 21004KT 20/18 A3005 RMK A01 T02020179  RH  087%=      5-min Rain = 0
KMC1 011033Z 21004KT 20/18 A3005 RMK A01 T02020179  RH  087%=      5-min Rain = 0
KMC1 011034Z 20004KT 20/18 A3005 RMK A01 T02010179  RH  087%=      5-min Rain = 0
KMC1 011035Z 21004KT 20/18 A3005 RMK A01 T02010179  RH  087%=      5-min Rain = 0
KMC1 011036Z 20004KT 20/18 A3005 RMK A01 T02010179  RH  087%=      5-min Rain = 0
KMC1 011037Z 20004KT 20/18 A3005 RMK A01 T02010179  RH  087%=      5-min Rain = 0
KMC1 011038Z 20004KT 20/18 A3005 RMK A01 T02010179  RH  087%=      5-min Rain = 0
KMC1 011039Z 20004KT 20/18 A3006 RMK A01 T02000179  RH  087%=      5-min Rain = 0
KMC1 011040Z 20004KT 20/18 A3006 RMK A01 T02000179  RH  088%=      5-min Rain = 0
KMC1 011041Z 20004KT 20/18 A3006 RMK A01 T02000179  RH  088%=      5-min Rain = 0
KMC1 011042Z 19004KT 20/18 A3006 RMK A01 T02000179  RH  088%=      5-min Rain = 0
KMC1 011043Z 20004KT 20/18 A3006 RMK A01 T02000179  RH  088%=      5-min Rain = 0
KMC1 011044Z 20004KT 20/18 A3006 RMK A01 T02000179  RH  088%=      5-min Rain = 0
KMC1 011045Z 20004KT 20/18 A3005 RMK A01 T02000179  RH  088%=      5-min Rain = 0
KMC1 011046Z 20005KT 20/18 A3005 RMK A01 T01990179  RH  088%=      5-min Rain = 0
KMC1 011047Z 20004KT 20/18 A3005 RMK A01 T01990179  RH  088%=      5-min Rain = 0
KMC1 011048Z 20004KT 20/18 A3005 RMK A01 T01980179  RH  088%=      5-min Rain = 0
KMC1 011049Z 20005KT 20/18 A3005 RMK A01 T01990179  RH  089%=      5-min Rain = 0
KMC1 011050Z 20004KT 20/18 A3005 RMK A01 T01990180  RH  089%=      5-min Rain = 0
KMC1 011051Z 20003KT 20/18 A3005 RMK A01 T01990180  RH  089%=      5-min Rain = 0
KMC1 011052Z 20003KT 20/18 A3005 RMK A01 T01990179  RH  089%=      5-min Rain = 0
KMC1 011053Z 20003KT 20/18 A3005 RMK A01 T01990179  RH  089%=      5-min Rain = 0
KMC1 011054Z 21003KT 20/18 A3005 RMK A01 T01990179  RH  089%=      5-min Rain = 0
KMC1 011055Z 20003KT 20/18 A3005 RMK A01 T01990180  RH  089%=      5-min Rain = 0
KMC1 011056Z 20003KT 20/18 A3005 RMK A01 T01990180  RH  089%=      5-min Rain = 0
KMC1 011057Z 20004KT 20/18 A3005 RMK A01 T01990180  RH  089%=      5-min Rain = 0
KMC1 011058Z 20004KT 20/18 A3005 RMK A01 T01990181  RH  089%=      5-min Rain = 0
KMC1 011059Z 20003KT 20/18 A3005 RMK A01 T01990181  RH  089%=      5-min Rain = 0
KMC1 011100Z 20004KT 20/18 A3005 RMK A01 T02000181  RH  089%=      5-min Rain = 0
KMC1 011101Z 21004KT 20/18 A3005 RMK A01 T02000180  RH  088%=      5-min Rain = 0
KMC1 011102Z 21004KT 20/18 A3005 RMK A01 T02000180  RH  088%=      5-min Rain = 0
KMC1 011103Z 21004KT 20/18 A3005 RMK A01 T02000180  RH  088%=      5-min Rain = 0
KMC1 011104Z 21003KT 20/18 A3005 RMK A01 T02000180  RH  088%=      5-min Rain = 0
KMC1 011105Z 21004KT 20/18 A3005 RMK A01 T02010181  RH  088%=      5-min Rain = 0
KMC1 011106Z 21004KT 20/18 A3005 RMK A01 T02010181  RH  088%=      5-min Rain = 0
KMC1 011107Z 21004KT 20/18 A3005 RMK A01 T02010181  RH  088%=      5-min Rain = 0
KMC1 011108Z 20004KT 20/18 A3005 RMK A01 T02010182  RH  088%=      5-min Rain = 0
KMC1 011109Z 21004KT 20/18 A3005 RMK A01 T02020181  RH  088%=      5-min Rain = 0
KMC1 011110Z 21004KT 20/18 A3005 RMK A01 T02020181  RH  088%=      5-min Rain = 0
KMC1 011111Z 22004KT 20/18 A3005 RMK A01 T02020181  RH  088%=      5-min Rain = 0
KMC1 011112Z 21004KT 20/18 A3005 RMK A01 T02020181  RH  088%=      5-min Rain = 0
KMC1 011113Z 21004KT 20/18 A3005 RMK A01 T02010181  RH  088%=      5-min Rain = 0
KMC1 011114Z 21004KT 20/18 A3006 RMK A01 T02010181  RH  088%=      5-min Rain = 0
KMC1 011115Z 21004KT 20/18 A3006 RMK A01 T02010180  RH  088%=      5-min Rain = 0
KMC1 011116Z 22003KT 20/18 A3006 RMK A01 T02010181  RH  088%=      5-min Rain = 0
KMC1 011117Z 22003KT 20/18 A3006 RMK A01 T02000181  RH  088%=      5-min Rain = 0
KMC1 011118Z 22003KT 20/18 A3006 RMK A01 T02000181  RH  088%=      5-min Rain = 0
KMC1 011119Z 22003KT 20/18 A3006 RMK A01 T02000180  RH  088%=      5-min Rain = 0
KMC1 011120Z 23003KT 20/18 A3006 RMK A01 T01990179  RH  088%=      5-min Rain = 0
KMC1 011121Z 23003KT 20/18 A3005 RMK A01 T01990179  RH  089%=      5-min Rain = 0
KMC1 011122Z 24003KT 20/18 A3005 RMK A01 T01980178  RH  089%=      5-min Rain = 0
KMC1 011123Z 24003KT 20/18 A3005 RMK A01 T01970178  RH  089%=      5-min Rain = 0
KMC1 011124Z 24003KT 20/18 A3005 RMK A01 T01970177  RH  089%=      5-min Rain = 0
KMC1 011125Z 25003KT 20/18 A3005 RMK A01 T01960177  RH  089%=      5-min Rain = 0
KMC1 011126Z 25003KT 20/18 A3005 RMK A01 T01950176  RH  089%=      5-min Rain = 0
KMC1 011127Z 26003KT 19/18 A3005 RMK A01 T01940175  RH  089%=      5-min Rain = 0
KMC1 011128Z 27003KT 19/18 A3005 RMK A01 T01930175  RH  089%=      5-min Rain = 0
KMC1 011129Z 27003KT 19/17 A3005 RMK A01 T01930174  RH  089%=      5-min Rain = 0
KMC1 011130Z 27003KT 19/17 A3005 RMK A01 T01920174  RH  089%=      5-min Rain = 0
KMC1 011131Z 28003KT 19/17 A3005 RMK A01 T01910174  RH  090%=      5-min Rain = 0
KMC1 011132Z 28003KT 19/17 A3005 RMK A01 T01910174  RH  090%=      5-min Rain = 0
KMC1 011133Z 27003KT 19/17 A3005 RMK A01 T01910174  RH  090%=      5-min Rain = 0
KMC1 011134Z 28003KT 19/17 A3005 RMK A01 T01900174  RH  090%=      5-min Rain = 0
KMC1 011135Z 27003KT 19/17 A3005 RMK A01 T01900174  RH  091%=      5-min Rain = 0
KMC1 011136Z 27003KT 19/18 A3006 RMK A01 T01890175  RH  091%=      5-min Rain = 0
KMC1 011137Z 27003KT 19/18 A3006 RMK A01 T01890175  RH  092%=      5-min Rain = 0
KMC1 011138Z 27003KT 19/18 A3006 RMK A01 T01890176  RH  092%=      5-min Rain = 0
KMC1 011139Z 27003KT 19/18 A3006 RMK A01 T01890176  RH  092%=      5-min Rain = 0
KMC1 011140Z 27003KT 19/18 A3006 RMK A01 T01890176  RH  092%=      5-min Rain = 0
KMC1 011141Z 26003KT 19/18 A3006 RMK A01 T01890177  RH  093%=      5-min Rain = 0
KMC1 011142Z 26003KT 19/18 A3005 RMK A01 T01880177  RH  093%=      5-min Rain = 0
KMC1 011143Z 26004KT 19/18 A3005 RMK A01 T01880177  RH  093%=      5-min Rain = 0
KMC1 011144Z 26003KT 19/18 A3005 RMK A01 T01880177  RH  093%=      5-min Rain = 0
KMC1 011145Z 26003KT 19/18 A3005 RMK A01 T01880177  RH  094%=      5-min Rain = 0
KMC1 011146Z 26003KT 19/18 A3005 RMK A01 T01880178  RH  094%=      5-min Rain = 0
KMC1 011147Z 25002KT 19/18 A3005 RMK A01 T01880178  RH  094%=      5-min Rain = 0
KMC1 011148Z 25003KT 19/18 A3005 RMK A01 T01880178  RH  094%=      5-min Rain = 0
KMC1 011149Z 25003KT 19/18 A3005 RMK A01 T01880179  RH  094%=      5-min Rain = 0
KMC1 011150Z 24003KT 19/18 A3005 RMK A01 T01890180  RH  094%=      5-min Rain = 0
KMC1 011151Z 24003KT 19/18 A3005 RMK A01 T01890179  RH  094%=      5-min Rain = 0
KMC1 011152Z 23004KT 19/18 A3005 RMK A01 T01890179  RH  094%=      5-min Rain = 0
KMC1 011153Z 23004KT 19/18 A3005 RMK A01 T01890179  RH  094%=      5-min Rain = 0
KMC1 011154Z 23004KT 19/18 A3005 RMK A01 T01890178  RH  094%=      5-min Rain = 0
KMC1 011155Z 23004KT 19/18 A3005 RMK A01 T01890178  RH  094%=      5-min Rain = 0
KMC1 011156Z 24004KT 19/18 A3005 RMK A01 T01890178  RH  093%=      5-min Rain = 0
KMC1 011157Z 24004KT 19/18 A3005 RMK A01 T01890178  RH  093%=      5-min Rain = 0
KMC1 011158Z 24004KT 19/18 A3005 RMK A01 T01890179  RH  094%=      5-min Rain = 0
KMC1 011159Z 24003KT 19/18 A3005 RMK A01 T01890178  RH  094%=      5-min Rain = 0
KMC1 011200Z 25003KT 19/18 A3005 RMK A01 T01890179  RH  093%=      5-min Rain = 0
KMC1 011201Z 25003KT 19/18 A3006 RMK A01 T01890178  RH  093%=      5-min Rain = 0
KMC1 011202Z 25003KT 19/18 A3006 RMK A01 T01890178  RH  094%=      5-min Rain = 0
KMC1 011203Z 25003KT 19/18 A3006 RMK A01 T01890179  RH  094%=      5-min Rain = 0
KMC1 011204Z 25003KT 19/18 A3006 RMK A01 T01890179  RH  094%=      5-min Rain = 0
KMC1 011205Z 25002KT 19/18 A3006 RMK A01 T01890179  RH  094%=      5-min Rain = 0
KMC1 011206Z 25003KT 19/18 A3006 RMK A01 T01890179  RH  094%=      5-min Rain = 0
KMC1 011207Z 25003KT 19/18 A3006 RMK A01 T01890179  RH  094%=      5-min Rain = 0
KMC1 011208Z 25003KT 19/18 A3006 RMK A01 T01890179  RH  094%=      5-min Rain = 0
KMC1 011209Z 25003KT 19/18 A3006 RMK A01 T01890179  RH  094%=      5-min Rain = 0
KMC1 011210Z 24003KT 19/18 A3006 RMK A01 T01890179  RH  094%=      5-min Rain = 0
KMC1 011211Z 24003KT 19/18 A3006 RMK A01 T01890178  RH  094%=      5-min Rain = 0
KMC1 011212Z 24003KT 19/18 A3006 RMK A01 T01880178  RH  094%=      5-min Rain = 0
KMC1 011213Z 25003KT 19/18 A3006 RMK A01 T01890178  RH  094%=      5-min Rain = 0
KMC1 011214Z 24003KT 19/18 A3006 RMK A01 T01890178  RH  094%=      5-min Rain = 0
KMC1 011215Z 24003KT 19/18 A3006 RMK A01 T01890178  RH  094%=      5-min Rain = 0
KMC1 011216Z 23003KT 19/18 A3006 RMK A01 T01890179  RH  094%=      5-min Rain = 0
KMC1 011217Z 24003KT 19/18 A3006 RMK A01 T01880179  RH  094%=      5-min Rain = 0
KMC1 011218Z 23003KT 19/18 A3006 RMK A01 T01890180  RH  094%=      5-min Rain = 0
KMC1 011219Z 24003KT 19/18 A3006 RMK A01 T01890180  RH  094%=      5-min Rain = 0
KMC1 011220Z 24002KT 19/18 A3006 RMK A01 T01890180  RH  094%=      5-min Rain = 0
KMC1 011221Z 24002KT 19/18 A3006 RMK A01 T01900179  RH  094%=      5-min Rain = 0
KMC1 011222Z 24002KT 19/18 A3006 RMK A01 T01900180  RH  094%=      5-min Rain = 0
KMC1 011223Z 23002KT 19/18 A3006 RMK A01 T01900180  RH  094%=      5-min Rain = 0
KMC1 011224Z 24002KT 19/18 A3006 RMK A01 T01910180  RH  094%=      5-min Rain = 0
KMC1 011225Z 24002KT 19/18 A3006 RMK A01 T01910180  RH  094%=      5-min Rain = 0
KMC1 011226Z 24002KT 19/18 A3006 RMK A01 T01910180  RH  093%=      5-min Rain = 0
KMC1 011227Z 24002KT 19/18 A3006 RMK A01 T01910180  RH  093%=      5-min Rain = 0
KMC1 011228Z 24003KT 19/18 A3006 RMK A01 T01910180  RH  093%=      5-min Rain = 0
KMC1 011229Z 24003KT 19/18 A3006 RMK A01 T01910180  RH  093%=      5-min Rain = 0
KMC1 011230Z 24003KT 19/18 A3006 RMK A01 T01920180  RH  093%=      5-min Rain = 0
KMC1 011231Z 23003KT 19/18 A3006 RMK A01 T01920180  RH  093%=      5-min Rain = 0
KMC1 011232Z 23003KT 19/18 A3006 RMK A01 T01930180  RH  092%=      5-min Rain = 0
KMC1 011233Z 22003KT 19/18 A3006 RMK A01 T01930180  RH  092%=      5-min Rain = 0
KMC1 011234Z 22003KT 19/18 A3006 RMK A01 T01940180  RH  092%=      5-min Rain = 0
KMC1 011235Z 22003KT 19/18 A3006 RMK A01 T01940181  RH  092%=      5-min Rain = 0
KMC1 011236Z 22003KT 19/18 A3006 RMK A01 T01940181  RH  092%=      5-min Rain = 0
KMC1 011237Z 22003KT 20/18 A3006 RMK A01 T01950181  RH  092%=      5-min Rain = 0
KMC1 011238Z 21003KT 20/18 A3006 RMK A01 T01950181  RH  091%=      5-min Rain = 0
KMC1 011239Z 22003KT 20/18 A3006 RMK A01 T01960181  RH  091%=      5-min Rain = 0
KMC1 011240Z 21002KT 20/18 A3006 RMK A01 T01960181  RH  091%=      5-min Rain = 0
KMC1 011241Z 21003KT 20/18 A3006 RMK A01 T01970181  RH  091%=      5-min Rain = 0
KMC1 011242Z 21003KT 20/18 A3006 RMK A01 T01980181  RH  090%=      5-min Rain = 0
KMC1 011243Z 20003KT 20/18 A3006 RMK A01 T01980181  RH  090%=      5-min Rain = 0
KMC1 011244Z 21003KT 20/18 A3006 RMK A01 T01990181  RH  090%=      5-min Rain = 0
KMC1 011245Z 22003KT 20/18 A3006 RMK A01 T01990181  RH  089%=      5-min Rain = 0
KMC1 011246Z 21002KT 20/18 A3007 RMK A01 T02000181  RH  089%=      5-min Rain = 0
KMC1 011247Z 22002KT 20/18 A3007 RMK A01 T02000182  RH  089%=      5-min Rain = 0
KMC1 011248Z 22003KT 20/18 A3007 RMK A01 T02010182  RH  089%=      5-min Rain = 0
KMC1 011249Z 21002KT 20/18 A3007 RMK A01 T02020183  RH  089%=      5-min Rain = 0
KMC1 011250Z 21003KT 20/18 A3007 RMK A01 T02030182  RH  088%=      5-min Rain = 0
KMC1 011251Z 21003KT 20/18 A3007 RMK A01 T02040182  RH  087%=      5-min Rain = 0
KMC1 011252Z 21003KT 21/18 A3007 RMK A01 T02050182  RH  087%=      5-min Rain = 0
KMC1 011253Z 21004KT 21/18 A3007 RMK A01 T02060183  RH  086%=      5-min Rain = 0
KMC1 011254Z 21004KT 21/18 A3007 RMK A01 T02070183  RH  086%=      5-min Rain = 0
KMC1 011255Z 21003KT 21/18 A3007 RMK A01 T02070183  RH  086%=      5-min Rain = 0
KMC1 011256Z 20003KT 21/18 A3007 RMK A01 T02080183  RH  086%=      5-min Rain = 0
KMC1 011257Z 20004KT 21/18 A3007 RMK A01 T02090183  RH  085%=      5-min Rain = 0
KMC1 011258Z 20004KT 21/18 A3007 RMK A01 T02100182  RH  084%=      5-min Rain = 0
KMC1 011259Z 20004KT 21/18 A3007 RMK A01 T02110183  RH  084%=      5-min Rain = 0
KMC1 011300Z 20003KT 21/18 A3007 RMK A01 T02110183  RH  084%=      5-min Rain = 0
KMC1 011301Z 21004KT 21/18 A3007 RMK A01 T02120184  RH  084%=      5-min Rain = 0
KMC1 011302Z 21004KT 21/18 A3007 RMK A01 T02130184  RH  083%=      5-min Rain = 0
KMC1 011303Z 20004KT 22/19 A3007 RMK A01 T02150185  RH  083%=      5-min Rain = 0
KMC1 011304Z 20004KT 22/19 A3008 RMK A01 T02160185  RH  083%=      5-min Rain = 0
KMC1 011305Z 21003KT 22/19 A3008 RMK A01 T02170186  RH  082%=      5-min Rain = 0
KMC1 011306Z 21005KT 22/19 A3008 RMK A01 T02180186  RH  082%=      5-min Rain = 0
KMC1 011307Z 21005KT 22/19 A3008 RMK A01 T02200186  RH  081%=      5-min Rain = 0
KMC1 011308Z 21004KT 22/19 A3008 RMK A01 T02210186  RH  081%=      5-min Rain = 0
KMC1 011309Z 21003KT 22/19 A3008 RMK A01 T02220187  RH  081%=      5-min Rain = 0
KMC1 011310Z 20004KT 22/19 A3008 RMK A01 T02230188  RH  080%=      5-min Rain = 0
KMC1 011311Z 21004KT 22/19 A3008 RMK A01 T02240187  RH  080%=      5-min Rain = 0
KMC1 011312Z 22003KT 23/19 A3008 RMK A01 T02250188  RH  079%=      5-min Rain = 0
KMC1 011313Z 21003KT 23/19 A3008 RMK A01 T02260187  RH  079%=      5-min Rain = 0
KMC1 011314Z 22002KT 23/19 A3008 RMK A01 T02270188  RH  079%=      5-min Rain = 0
KMC1 011315Z 21002KT 23/19 A3008 RMK A01 T02280188  RH  078%=      5-min Rain = 0
KMC1 011316Z 22002KT 23/19 A3008 RMK A01 T02290188  RH  078%=      5-min Rain = 0
KMC1 011317Z 22003KT 23/19 A3008 RMK A01 T02310188  RH  077%=      5-min Rain = 0
KMC1 011318Z 23002KT 23/19 A3008 RMK A01 T02310188  RH  077%=      5-min Rain = 0
KMC1 011319Z 22003KT 23/19 A3008 RMK A01 T02310188  RH  077%=      5-min Rain = 0
KMC1 011320Z 23003KT 23/19 A3008 RMK A01 T02310187  RH  077%=      5-min Rain = 0
KMC1 011321Z 24002KT 23/19 A3008 RMK A01 T02310188  RH  077%=      5-min Rain = 0
KMC1 011322Z 24003KT 23/19 A3008 RMK A01 T02310188  RH  077%=      5-min Rain = 0
KMC1 011323Z 23004KT 23/19 A3008 RMK A01 T02310187  RH  076%=      5-min Rain = 0
KMC1 011324Z 24003KT 23/19 A3008 RMK A01 T02310188  RH  077%=      5-min Rain = 0
KMC1 011325Z 23004KT 23/19 A3008 RMK A01 T02310188  RH  077%=      5-min Rain = 0
KMC1 011326Z 23004KT 23/19 A3008 RMK A01 T02310188  RH  077%=      5-min Rain = 0
KMC1 011327Z 23004KT 23/19 A3008 RMK A01 T02310187  RH  077%=      5-min Rain = 0
KMC1 011328Z 24002KT 23/19 A3008 RMK A01 T02310188  RH  077%=      5-min Rain = 0
KMC1 011329Z 24004KT 23/19 A3008 RMK A01 T02320188  RH  076%=      5-min Rain = 0
KMC1 011330Z 23003KT 23/19 A3008 RMK A01 T02320188  RH  076%=      5-min Rain = 0
KMC1 011331Z 23003KT 23/19 A3008 RMK A01 T02320188  RH  076%=      5-min Rain = 0
KMC1 011332Z 25003KT 23/19 A3008 RMK A01 T02320188  RH  076%=      5-min Rain = 0
KMC1 011333Z 25003KT 23/19 A3008 RMK A01 T02320188  RH  076%=      5-min Rain = 0
KMC1 011334Z 24003KT 23/19 A3008 RMK A01 T02320188  RH  076%=      5-min Rain = 0
KMC1 011335Z 25003KT 23/19 A3008 RMK A01 T02330188  RH  076%=      5-min Rain = 0
KMC1 011336Z 25002KT 23/19 A3008 RMK A01 T02330188  RH  076%=      5-min Rain = 0
KMC1 011337Z 23001KT 23/19 A3008 RMK A01 T02340189  RH  076%=      5-min Rain = 0
KMC1 011338Z 25001KT 24/19 A3008 RMK A01 T02350189  RH  075%=      5-min Rain = 0
KMC1 011339Z 26001KT 24/19 A3008 RMK A01 T02360189  RH  075%=      5-min Rain = 0
KMC1 011340Z 26000KT 24/19 A3008 RMK A01 T02370189  RH  075%=      5-min Rain = 0
KMC1 011341Z 25002KT 24/19 A3008 RMK A01 T02370189  RH  074%=      5-min Rain = 0
KMC1 011342Z 26001KT 24/19 A3008 RMK A01 T02380189  RH  074%=      5-min Rain = 0
KMC1 011343Z 27001KT 24/19 A3009 RMK A01 T02380188  RH  074%=      5-min Rain = 0
KMC1 011344Z 26000KT 24/19 A3009 RMK A01 T02390189  RH  074%=      5-min Rain = 0
KMC1 011345Z 26001KT 24/19 A3009 RMK A01 T02400191  RH  074%=      5-min Rain = 0
KMC1 011346Z 27002KT 24/19 A3009 RMK A01 T02400189  RH  073%=      5-min Rain = 0
KMC1 011347Z 26002KT 24/19 A3009 RMK A01 T02410189  RH  073%=      5-min Rain = 0
KMC1 011348Z 26001KT 24/19 A3009 RMK A01 T02410190  RH  073%=      5-min Rain = 0
KMC1 011349Z 26000KT 24/19 A3009 RMK A01 T02420190  RH  073%=      5-min Rain = 0
KMC1 011350Z 26001KT 24/19 A3009 RMK A01 T02420189  RH  072%=      5-min Rain = 0
KMC1 011351Z 27001KT 24/19 A3009 RMK A01 T02420190  RH  073%=      5-min Rain = 0
KMC1 011352Z 27001KT 24/19 A3009 RMK A01 T02420189  RH  072%=      5-min Rain = 0
KMC1 011353Z 26001KT 24/19 A301 RMK A01 T02420190  RH  072%=      5-min Rain = 0
KMC1 011354Z 26001KT 24/19 A301 RMK A01 T02420190  RH  072%=      5-min Rain = 0
KMC1 011355Z 25001KT 24/19 A301 RMK A01 T02420189  RH  072%=      5-min Rain = 0
KMC1 011356Z 25001KT 24/19 A301 RMK A01 T02430191  RH  073%=      5-min Rain = 0
KMC1 011357Z 24002KT 24/19 A301 RMK A01 T02440190  RH  072%=      5-min Rain = 0
KMC1 011358Z 24002KT 25/19 A301 RMK A01 T02450190  RH  072%=      5-min Rain = 0
KMC1 011359Z 26001KT 25/19 A301 RMK A01 T02450190  RH  072%=      5-min Rain = 0
KMC1 011400Z 26001KT 24/19 A301 RMK A01 T02440190  RH  072%=      5-min Rain = 0
KMC1 011401Z 26002KT 25/19 A301 RMK A01 T02450190  RH  071%=      5-min Rain = 0
KMC1 011402Z 25001KT 25/19 A301 RMK A01 T02460191  RH  071%=      5-min Rain = 0
KMC1 011403Z 23001KT 25/19 A301 RMK A01 T02460192  RH  071%=      5-min Rain = 0
KMC1 011404Z 24002KT 25/19 A3011 RMK A01 T02470191  RH  071%=      5-min Rain = 0
KMC1 011405Z 23001KT 25/19 A3011 RMK A01 T02470193  RH  071%=      5-min Rain = 0
KMC1 011406Z 24003KT 25/19 A3011 RMK A01 T02490193  RH  071%=      5-min Rain = 0
KMC1 011407Z 25003KT 25/19 A3011 RMK A01 T02500193  RH  070%=      5-min Rain = 0
KMC1 011408Z 23002KT 25/19 A3011 RMK A01 T02500192  RH  070%=      5-min Rain = 0
KMC1 011409Z 25002KT 25/19 A3011 RMK A01 T02510192  RH  070%=      5-min Rain = 0
KMC1 011410Z 26003KT 25/19 A3011 RMK A01 T02510193  RH  070%=      5-min Rain = 0
KMC1 011411Z 26002KT 25/19 A3011 RMK A01 T02520192  RH  069%=      5-min Rain = 0
KMC1 011412Z 25003KT 25/19 A3011 RMK A01 T02530192  RH  069%=      5-min Rain = 0
KMC1 011413Z 25002KT 25/19 A3011 RMK A01 T02540192  RH  069%=      5-min Rain = 0
KMC1 011414Z 24003KT 25/19 A3011 RMK A01 T02540191  RH  068%=      5-min Rain = 0
KMC1 011415Z 25003KT 25/19 A3011 RMK A01 T02540191  RH  068%=      5-min Rain = 0
KMC1 011416Z 26003KT 26/19 A3011 RMK A01 T02550191  RH  068%=      5-min Rain = 0
KMC1 011417Z 26002KT 26/19 A3011 RMK A01 T02550191  RH  068%=      5-min Rain = 0
KMC1 011418Z 25002KT 26/19 A3011 RMK A01 T02560191  RH  067%=      5-min Rain = 0
KMC1 011419Z 24001KT 26/19 A3011 RMK A01 T02580193  RH  067%=      5-min Rain = 0
KMC1 011420Z 26003KT 26/19 A3011 RMK A01 T02600193  RH  066%=      5-min Rain = 0
KMC1 011421Z 25002KT 26/19 A3011 RMK A01 T02610192  RH  066%=      5-min Rain = 0
KMC1 011422Z 23002KT 26/19 A3011 RMK A01 T02610192  RH  066%=      5-min Rain = 0
KMC1 011423Z 22002KT 26/19 A3011 RMK A01 T02620191  RH  065%=      5-min Rain = 0
KMC1 011424Z 28002KT 26/19 A3011 RMK A01 T02640192  RH  065%=      5-min Rain = 0
KMC1 011425Z 25002KT 26/19 A3011 RMK A01 T02640192  RH  065%=      5-min Rain = 0
KMC1 011426Z 24001KT 27/19 A3011 RMK A01 T02660193  RH  064%=      5-min Rain = 0
KMC1 011427Z 25002KT 27/19 A3011 RMK A01 T02660192  RH  064%=      5-min Rain = 0
KMC1 011428Z 23003KT 27/19 A3011 RMK A01 T02650193  RH  064%=      5-min Rain = 0
KMC1 011429Z 22002KT 27/19 A3011 RMK A01 T02650192  RH  064%=      5-min Rain = 0
KMC1 011430Z 22003KT 26/19 A3011 RMK A01 T02640191  RH  064%=      5-min Rain = 0
KMC1 011431Z 24002KT 26/19 A3011 RMK A01 T02640193  RH  065%=      5-min Rain = 0
KMC1 011432Z 27002KT 27/19 A3011 RMK A01 T02650194  RH  065%=      5-min Rain = 0
KMC1 011433Z 26002KT 27/19 A3011 RMK A01 T02680194  RH  064%=      5-min Rain = 0
KMC1 011434Z 28002KT 27/19 A3011 RMK A01 T02690191  RH  062%=      5-min Rain = 0
KMC1 011435Z 30001KT 27/19 A3011 RMK A01 T02700192  RH  062%=      5-min Rain = 0
KMC1 011436Z 28004KT 27/19 A3011 RMK A01 T02700192  RH  062%=      5-min Rain = 0
KMC1 011437Z 27003KT 27/19 A3011 RMK A01 T02700192  RH  062%=      5-min Rain = 0
KMC1 011438Z 27004KT 27/19 A3011 RMK A01 T02700192  RH  062%=      5-min Rain = 0
KMC1 011439Z 28004KT 27/19 A3011 RMK A01 T02700191  RH  062%=      5-min Rain = 0
KMC1 011440Z 27003KT 27/19 A3011 RMK A01 T02710191  RH  062%=      5-min Rain = 0
KMC1 011441Z 27003KT 27/19 A3011 RMK A01 T02710191  RH  062%=      5-min Rain = 0
KMC1 011442Z 29003KT 27/19 A3011 RMK A01 T02710191  RH  062%=      5-min Rain = 0
KMC1 011443Z 30004KT 27/19 A3011 RMK A01 T02730191  RH  061%=      5-min Rain = 0
KMC1 011444Z 30003KT 27/19 A3011 RMK A01 T02740191  RH  061%=      5-min Rain = 0
KMC1 011445Z 31004KT 27/19 A3011 RMK A01 T02740191  RH  060%=      5-min Rain = 0
KMC1 011446Z 32004KT 27/19 A3011 RMK A01 T02740191  RH  060%=      5-min Rain = 0
KMC1 011447Z 31003KT 27/19 A3011 RMK A01 T02740192  RH  061%=      5-min Rain = 0
KMC1 011448Z 32003KT 28/19 A3011 RMK A01 T02750192  RH  061%=      5-min Rain = 0
KMC1 011449Z 32004KT 28/19 A3011 RMK A01 T02760192  RH  060%=      5-min Rain = 0
KMC1 011450Z 32005KT 28/19 A3011 RMK A01 T02760192  RH  060%=      5-min Rain = 0
KMC1 011451Z 31004KT 28/19 A3011 RMK A01 T02750191  RH  060%=      5-min Rain = 0
KMC1 011452Z 31003KT 27/19 A3011 RMK A01 T02740189  RH  060%=      5-min Rain = 0
KMC1 011453Z 32004KT 27/19 A3011 RMK A01 T02740189  RH  060%=      5-min Rain = 0
KMC1 011454Z 31003KT 28/19 A3011 RMK A01 T02750190  RH  060%=      5-min Rain = 0
KMC1 011455Z 29003KT 28/19 A3011 RMK A01 T02770191  RH  060%=      5-min Rain = 0
KMC1 011456Z 29003KT 28/19 A3011 RMK A01 T02780192  RH  059%=      5-min Rain = 0
KMC1 011457Z 31002KT 28/19 A3011 RMK A01 T02770191  RH  060%=      5-min Rain = 0
KMC1 011458Z 28001KT 28/19 A3011 RMK A01 T02760191  RH  060%=      5-min Rain = 0
KMC1 011459Z 31003KT 28/19 A3011 RMK A01 T02770190  RH  059%=      5-min Rain = 0
KMC1 011500Z 33003KT 28/19 A3011 RMK A01 T02770186  RH  058%=      5-min Rain = 0
KMC1 011501Z 34002KT 28/19 A3011 RMK A01 T02760188  RH  058%=      5-min Rain = 0
KMC1 011502Z 33003KT 28/19 A3011 RMK A01 T02750188  RH  059%=      5-min Rain = 0
KMC1 011503Z 33002KT 28/19 A3011 RMK A01 T02750187  RH  058%=      5-min Rain = 0
KMC1 011504Z 32002KT 28/19 A3011 RMK A01 T02760187  RH  059%=      5-min Rain = 0
KMC1 011505Z 30002KT 28/19 A3011 RMK A01 T02760188  RH  059%=      5-min Rain = 0
KMC1 011506Z 30003KT 28/19 A3011 RMK A01 T02790190  RH  058%=      5-min Rain = 0
KMC1 011507Z 31002KT 28/19 A3011 RMK A01 T02820188  RH  057%=      5-min Rain = 0
KMC1 011508Z 33002KT 28/19 A3011 RMK A01 T02830188  RH  056%=      5-min Rain = 0
KMC1 011509Z 32002KT 28/19 A3011 RMK A01 T02830186  RH  056%=      5-min Rain = 0
KMC1 011510Z 31003KT 28/19 A3011 RMK A01 T02820186  RH  056%=      5-min Rain = 0
KMC1 011511Z 31001KT 28/19 A3011 RMK A01 T02820185  RH  055%=      5-min Rain = 0
KMC1 011512Z 29002KT 28/19 A3011 RMK A01 T02830185  RH  055%=      5-min Rain = 0
KMC1 011513Z 30003KT 29/19 A3011 RMK A01 T02860190  RH  056%=      5-min Rain = 0
KMC1 011514Z 31004KT 29/19 A3011 RMK A01 T02880191  RH  056%=      5-min Rain = 0
KMC1 011515Z 28002KT 29/19 A3011 RMK A01 T02890188  RH  054%=      5-min Rain = 0
KMC1 011516Z 27003KT 29/19 A3011 RMK A01 T02870188  RH  055%=      5-min Rain = 0
KMC1 011517Z 25002KT 29/19 A3011 RMK A01 T02870189  RH  055%=      5-min Rain = 0
KMC1 011518Z 27002KT 29/19 A3011 RMK A01 T02870190  RH  056%=      5-min Rain = 0
KMC1 011519Z 28003KT 29/19 A3011 RMK A01 T02870190  RH  056%=      5-min Rain = 0
KMC1 011520Z 27001KT 29/19 A3011 RMK A01 T02880189  RH  055%=      5-min Rain = 0
KMC1 011521Z 36001KT 29/19 A3011 RMK A01 T02870189  RH  056%=      5-min Rain = 0
KMC1 011522Z 33003KT 29/19 A3011 RMK A01 T02880187  RH  054%=      5-min Rain = 0
KMC1 011523Z 31003KT 29/19 A3011 RMK A01 T02910186  RH  053%=      5-min Rain = 0
KMC1 011524Z 31003KT 29/19 A3011 RMK A01 T02930185  RH  052%=      5-min Rain = 0
KMC1 011525Z 32003KT 29/18 A3011 RMK A01 T02930184  RH  052%=      5-min Rain = 0
KMC1 011526Z 32004KT 29/18 A3011 RMK A01 T02930184  RH  052%=      5-min Rain = 0
KMC1 011527Z 32003KT 29/18 A3011 RMK A01 T02910184  RH  052%=      5-min Rain = 0
KMC1 011528Z 31003KT 29/19 A3011 RMK A01 T02920185  RH  052%=      5-min Rain = 0
KMC1 011529Z 30004KT 29/19 A3011 RMK A01 T02940185  RH  052%=      5-min Rain = 0
KMC1 011530Z 30004KT 30/18 A3011 RMK A01 T02950183  RH  051%=      5-min Rain = 0
KMC1 011531Z 32002KT 30/18 A3011 RMK A01 T02950184  RH  051%=      5-min Rain = 0
KMC1 011532Z 31001KT 30/19 A3011 RMK A01 T02950185  RH  052%=      5-min Rain = 0
KMC1 011533Z 32003KT 30/19 A3011 RMK A01 T02960185  RH  051%=      5-min Rain = 0
KMC1 011534Z 31002KT 30/18 A3011 RMK A01 T02980184  RH  050%=      5-min Rain = 0
KMC1 011535Z 33001KT 30/19 A3011 RMK A01 T02990185  RH  050%=      5-min Rain = 0
KMC1 011536Z 31003KT 30/18 A3011 RMK A01 T03000184  RH  050%=      5-min Rain = 0
KMC1 011537Z 35002KT 30/18 A3011 RMK A01 T03000184  RH  050%=      5-min Rain = 0
KMC1 011538Z 03001KT 30/18 A3011 RMK A01 T03000183  RH  049%=      5-min Rain = 0
KMC1 011539Z 08000KT 30/18 A3011 RMK A01 T02990183  RH  050%=      5-min Rain = 0
KMC1 011540Z 11001KT 30/18 A3011 RMK A01 T02980183  RH  050%=      5-min Rain = 0
KMC1 011541Z 15001KT 30/18 A3011 RMK A01 T03000184  RH  050%=      5-min Rain = 0
KMC1 011542Z 14002KT 30/18 A3011 RMK A01 T03030184  RH  049%=      5-min Rain = 0
KMC1 011543Z 15002KT 30/18 A3011 RMK A01 T03040183  RH  048%=      5-min Rain = 0
KMC1 011544Z 12001KT 30/18 A3011 RMK A01 T03020183  RH  049%=      5-min Rain = 0
KMC1 011545Z 25001KT 30/18 A3011 RMK A01 T03010181  RH  049%=      5-min Rain = 0
KMC1 011546Z 35003KT 30/18 A3011 RMK A01 T03000183  RH  049%=      5-min Rain = 0
KMC1 011547Z 35003KT 30/18 A3011 RMK A01 T03000182  RH  049%=      5-min Rain = 0
KMC1 011548Z 02002KT 30/18 A3011 RMK A01 T02990182  RH  049%=      5-min Rain = 0
KMC1 011549Z 35001KT 30/18 A3011 RMK A01 T03000183  RH  050%=      5-min Rain = 0
KMC1 011550Z 34004KT 30/18 A3011 RMK A01 T03000182  RH  049%=      5-min Rain = 0
KMC1 011551Z 31002KT 30/18 A3011 RMK A01 T03010181  RH  049%=      5-min Rain = 0
KMC1 011552Z 28002KT 30/18 A3011 RMK A01 T03010182  RH  049%=      5-min Rain = 0
KMC1 011553Z 25000KT 30/18 A3011 RMK A01 T03010182  RH  049%=      5-min Rain = 0
KMC1 011554Z 20000KT 30/18 A3011 RMK A01 T03010182  RH  049%=      5-min Rain = 0
KMC1 011555Z 25001KT 30/18 A3011 RMK A01 T03030184  RH  049%=      5-min Rain = 0
KMC1 011556Z 35001KT 31/18 A3011 RMK A01 T03060183  RH  048%=      5-min Rain = 0
KMC1 011557Z 04004KT 31/18 A3011 RMK A01 T03080184  RH  048%=      5-min Rain = 0
KMC1 011558Z 03004KT 31/18 A3011 RMK A01 T03090182  RH  047%=      5-min Rain = 0
KMC1 011559Z 03004KT 31/18 A3011 RMK A01 T03100181  RH  046%=      5-min Rain = 0
KMC1 011600Z 04003KT 31/18 A3011 RMK A01 T03090179  RH  046%=      5-min Rain = 0
KMC1 011601Z 07001KT 31/18 A3011 RMK A01 T03060179  RH  047%=      5-min Rain = 0
KMC1 011602Z 10003KT 31/18 A3011 RMK A01 T03060179  RH  047%=      5-min Rain = 0
KMC1 011603Z 09003KT 31/18 A3011 RMK A01 T03060179  RH  047%=      5-min Rain = 0
KMC1 011604Z 13001KT 31/18 A3011 RMK A01 T03070180  RH  047%=      5-min Rain = 0
KMC1 011605Z 34001KT 31/18 A3011 RMK A01 T03080179  RH  046%=      5-min Rain = 0
KMC1 011606Z 08003KT 31/17 A3011 RMK A01 T03100172  RH  044%=      5-min Rain = 0
KMC1 011607Z 11002KT 31/17 A3011 RMK A01 T03100174  RH  044%=      5-min Rain = 0
KMC1 011608Z 15001KT 31/18 A3011 RMK A01 T03090175  RH  045%=      5-min Rain = 0
KMC1 011609Z 32001KT 31/18 A3011 RMK A01 T03120179  RH  045%=      5-min Rain = 0
KMC1 011610Z 31003KT 32/18 A3011 RMK A01 T03170180  RH  044%=      5-min Rain = 0
KMC1 011611Z 33002KT 32/18 A3011 RMK A01 T03170178  RH  043%=      5-min Rain = 0
KMC1 011612Z 31001KT 32/18 A3011 RMK A01 T03150179  RH  044%=      5-min Rain = 0
KMC1 011613Z 32002KT 31/17 A3011 RMK A01 T03130173  RH  043%=      5-min Rain = 0
KMC1 011614Z 32003KT 31/17 A3011 RMK A01 T03120170  RH  043%=      5-min Rain = 0
KMC1 011615Z 29002KT 31/17 A3011 RMK A01 T03100172  RH  044%=      5-min Rain = 0
KMC1 011616Z 31003KT 31/17 A3011 RMK A01 T03110170  RH  043%=      5-min Rain = 0
KMC1 011617Z 32003KT 31/17 A3011 RMK A01 T03110171  RH  043%=      5-min Rain = 0
KMC1 011618Z 32004KT 31/17 A3011 RMK A01 T03100173  RH  044%=      5-min Rain = 0
KMC1 011619Z 33003KT 31/17 A3011 RMK A01 T03080172  RH  044%=      5-min Rain = 0
KMC1 011620Z 34002KT 31/17 A3011 RMK A01 T03060172  RH  045%=      5-min Rain = 0
KMC1 011621Z 01002KT 31/17 A3011 RMK A01 T03050171  RH  044%=      5-min Rain = 0
KMC1 011622Z 35003KT 31/17 A3011 RMK A01 T03060172  RH  045%=      5-min Rain = 0
KMC1 011623Z 32004KT 31/17 A3011 RMK A01 T03070172  RH  044%=      5-min Rain = 0
KMC1 011624Z 34004KT 31/17 A3011 RMK A01 T03090170  RH  043%=      5-min Rain = 0
KMC1 011625Z 00003KT 31/16 A3011 RMK A01 T03100164  RH  041%=      5-min Rain = 0
KMC1 011626Z 35003KT 31/16 A3011 RMK A01 T03100159  RH  040%=      5-min Rain = 0
KMC1 011627Z 33002KT 31/16 A3011 RMK A01 T03090160  RH  041%=      5-min Rain = 0
KMC1 011628Z 30002KT 31/16 A3011 RMK A01 T03090160  RH  041%=      5-min Rain = 0
KMC1 011629Z 32002KT 31/16 A3011 RMK A01 T03080161  RH  041%=      5-min Rain = 0
KMC1 011630Z 30001KT 31/16 A3011 RMK A01 T03070163  RH  042%=      5-min Rain = 0
KMC1 011631Z 34002KT 31/16 A3011 RMK A01 T03060163  RH  042%=      5-min Rain = 0
KMC1 011632Z 34003KT 31/16 A3011 RMK A01 T03080163  RH  042%=      5-min Rain = 0
KMC1 011633Z 31002KT 31/16 A3011 RMK A01 T03080163  RH  042%=      5-min Rain = 0
KMC1 011634Z 30001KT 31/16 A3011 RMK A01 T03070162  RH  042%=      5-min Rain = 0
KMC1 011635Z 26001KT 31/16 A3011 RMK A01 T03060160  RH  041%=      5-min Rain = 0
KMC1 011636Z 25000KT 31/16 A3011 RMK A01 T03060161  RH  042%=      5-min Rain = 0
KMC1 011637Z 05001KT 31/16 A3011 RMK A01 T03070162  RH  042%=      5-min Rain = 0
KMC1 011638Z 04003KT 31/16 A3011 RMK A01 T03080163  RH  042%=      5-min Rain = 0
KMC1 011639Z 05003KT 31/16 A3011 RMK A01 T03090162  RH  041%=      5-min Rain = 0
KMC1 011640Z 08005KT 31/16 A3011 RMK A01 T03090162  RH  041%=      5-min Rain = 0
KMC1 011641Z 10003KT 31/16 A3011 RMK A01 T03110155  RH  039%=      5-min Rain = 0
KMC1 011642Z 07002KT 31/16 A3011 RMK A01 T03120156  RH  039%=      5-min Rain = 0
KMC1 011643Z 04001KT 31/16 A3011 RMK A01 T03140159  RH  039%=      5-min Rain = 0
KMC1 011644Z 05001KT 32/16 A3011 RMK A01 T03170162  RH  039%=      5-min Rain = 0
KMC1 011645Z 03003KT 32/16 A3011 RMK A01 T03210160  RH  038%=      5-min Rain = 0
KMC1 011646Z 04003KT 32/16 A3011 RMK A01 T03220160  RH  038%=      5-min Rain = 0
KMC1 011647Z 01002KT 32/16 A3011 RMK A01 T03220159  RH  038%=      5-min Rain = 0
KMC1 011648Z 04003KT 32/16 A301 RMK A01 T03220160  RH  038%=      5-min Rain = 0
KMC1 011649Z 04002KT 32/16 A301 RMK A01 T03220161  RH  038%=      5-min Rain = 0
KMC1 011650Z 03001KT 32/16 A301 RMK A01 T03240161  RH  038%=      5-min Rain = 0
KMC1 011651Z 12003KT 33/16 A301 RMK A01 T03250158  RH  037%=      5-min Rain = 0
KMC1 011652Z 07003KT 33/16 A301 RMK A01 T03260157  RH  036%=      5-min Rain = 0
KMC1 011653Z 05004KT 33/16 A301 RMK A01 T03270162  RH  037%=      5-min Rain = 0
KMC1 011654Z 06004KT 33/16 A301 RMK A01 T03280161  RH  037%=      5-min Rain = 0
KMC1 011655Z 06003KT 33/16 A301 RMK A01 T03290160  RH  036%=      5-min Rain = 0
KMC1 011656Z 06003KT 33/15 A301 RMK A01 T03320153  RH  034%=      5-min Rain = 0
KMC1 011657Z 09005KT 33/16 A301 RMK A01 T03330155  RH  034%=      5-min Rain = 0
KMC1 011658Z 10002KT 33/16 A301 RMK A01 T03310155  RH  035%=      5-min Rain = 0
KMC1 011659Z 13002KT 33/16 A301 RMK A01 T03270157  RH  036%=      5-min Rain = 0
KMC1 011700Z 13003KT 33/16 A301 RMK A01 T03270157  RH  036%=      5-min Rain = 0
KMC1 011701Z 16002KT 33/15 A301 RMK A01 T03280154  RH  035%=      5-min Rain = 0
KMC1 011702Z 22002KT 33/15 A301 RMK A01 T03280153  RH  035%=      5-min Rain = 0
KMC1 011703Z 19001KT 33/15 A301 RMK A01 T03290152  RH  035%=      5-min Rain = 0
KMC1 011704Z 04003KT 33/15 A301 RMK A01 T03300153  RH  034%=      5-min Rain = 0
KMC1 011705Z 04006KT 33/15 A301 RMK A01 T03320146  RH  033%=      5-min Rain = 0
KMC1 011706Z 04003KT 33/14 A301 RMK A01 T03280143  RH  033%=      5-min Rain = 0
KMC1 011707Z 04002KT 33/14 A301 RMK A01 T03250143  RH  033%=      5-min Rain = 0
KMC1 011708Z 06005KT 33/15 A301 RMK A01 T03260145  RH  033%=      5-min Rain = 0
KMC1 011709Z 07006KT 33/14 A301 RMK A01 T03300140  RH  032%=      5-min Rain = 0
KMC1 011710Z 07003KT 33/13 A301 RMK A01 T03330127  RH  029%=      5-min Rain = 0
KMC1 011711Z 00001KT 33/12 A301 RMK A01 T03330123  RH  028%=      5-min Rain = 0
KMC1 011712Z 01003KT 33/12 A301 RMK A01 T03310120  RH  028%=      5-min Rain = 0
KMC1 011713Z 00001KT 33/12 A301 RMK A01 T03290116  RH  027%=      5-min Rain = 0
KMC1 011714Z 00004KT 33/13 A301 RMK A01 T03280128  RH  030%=      5-min Rain = 0
KMC1 011715Z 05001KT 33/13 A301 RMK A01 T03270134  RH  031%=      5-min Rain = 0
KMC1 011716Z 08002KT 33/14 A301 RMK A01 T03290137  RH  031%=      5-min Rain = 0
KMC1 011717Z 07005KT 33/13 A301 RMK A01 T03310133  RH  030%=      5-min Rain = 0
KMC1 011718Z 07004KT 33/13 A301 RMK A01 T03320134  RH  030%=      5-min Rain = 0
KMC1 011719Z 07004KT 33/13 A301 RMK A01 T03320134  RH  030%=      5-min Rain = 0
KMC1 011720Z 10004KT 33/13 A301 RMK A01 T03310132  RH  030%=      5-min Rain = 0
KMC1 011721Z 10005KT 33/13 A301 RMK A01 T03320129  RH  029%=      5-min Rain = 0
KMC1 011722Z 11004KT 33/13 A301 RMK A01 T03330131  RH  030%=      5-min Rain = 0
KMC1 011723Z 07005KT 34/13 A301 RMK A01 T03350130  RH  029%=      5-min Rain = 0
KMC1 011724Z 03005KT 34/14 A301 RMK A01 T03360138  RH  030%=      5-min Rain = 0
KMC1 011725Z 04006KT 34/15 A301 RMK A01 T03360145  RH  032%=      5-min Rain = 0
KMC1 011726Z 00004KT 34/15 A301 RMK A01 T03350146  RH  032%=      5-min Rain = 0
KMC1 011727Z 36005KT 33/14 A301 RMK A01 T03340143  RH  032%=      5-min Rain = 0
KMC1 011728Z 00006KT 33/15 A301 RMK A01 T03330146  RH  033%=      5-min Rain = 0
KMC1 011729Z 01007KT 33/15 A301 RMK A01 T03310148  RH  033%=      5-min Rain = 0
KMC1 011730Z 01004KT 33/15 A301 RMK A01 T03280148  RH  034%=      5-min Rain = 0
KMC1 011731Z 04003KT 32/15 A301 RMK A01 T03240147  RH  034%=      5-min Rain = 0
KMC1 011732Z 07003KT 32/15 A301 RMK A01 T03220145  RH  034%=      5-min Rain = 0
KMC1 011733Z 08004KT 33/14 A301 RMK A01 T03260144  RH  033%=      5-min Rain = 0
KMC1 011734Z 08004G9KT 33/15 A301 RMK A01 T03320147  RH  033%=      5-min Rain = 0
KMC1 011735Z 07007KT 34/15 A301 RMK A01 T03390148  RH  032%=      5-min Rain = 0
KMC1 011736Z 02005KT 34/15 A301 RMK A01 T03420147  RH  031%=      5-min Rain = 0
KMC1 011737Z 01005KT 34/14 A301 RMK A01 T03400143  RH  031%=      5-min Rain = 0
KMC1 011738Z 04005KT 34/14 A301 RMK A01 T03360142  RH  031%=      5-min Rain = 0
KMC1 011739Z 06007KT 34/14 A301 RMK A01 T03350144  RH  032%=      5-min Rain = 0
KMC1 011740Z 09005KT 34/14 A301 RMK A01 T03370143  RH  031%=      5-min Rain = 0
KMC1 011741Z 08002KT 34/14 A301 RMK A01 T03360141  RH  031%=      5-min Rain = 0
KMC1 011742Z 10003KT 34/14 A301 RMK A01 T03370144  RH  031%=      5-min Rain = 0
KMC1 011743Z 11008G15KT 34/14 A3009 RMK A01 T03390141  RH  030%=      5-min Rain = 0
KMC1 011744Z 09008G13KT 34/14 A3009 RMK A01 T03370139  RH  030%=      5-min Rain = 0
KMC1 011745Z 08003KT 34/14 A3009 RMK A01 T03370143  RH  031%=      5-min Rain = 0
KMC1 011746Z 10005KT 34/14 A3009 RMK A01 T03410143  RH  031%=      5-min Rain = 0
KMC1 011747Z 07003KT 34/14 A3009 RMK A01 T03440143  RH  030%=      5-min Rain = 0
KMC1 011748Z 06004KT 35/14 A3009 RMK A01 T03460143  RH  030%=      5-min Rain = 0
KMC1 011749Z 09005KT 35/14 A3009 RMK A01 T03450141  RH  029%=      5-min Rain = 0
KMC1 011750Z 10002KT 34/14 A3009 RMK A01 T03420138  RH  029%=      5-min Rain = 0
KMC1 011751Z 09005KT 34/14 A3009 RMK A01 T03390141  RH  030%=      5-min Rain = 0
KMC1 011752Z 08005KT 34/14 A3009 RMK A01 T03410141  RH  030%=      5-min Rain = 0
KMC1 011753Z 08004KT 34/14 A3009 RMK A01 T03430141  RH  030%=      5-min Rain = 0
KMC1 011754Z 07005KT 34/14 A3009 RMK A01 T03440141  RH  030%=      5-min Rain = 0
KMC1 011755Z 08004KT 34/14 A3009 RMK A01 T03440142  RH  030%=      5-min Rain = 0
KMC1 011756Z 12007KT 35/14 A3009 RMK A01 T03450141  RH  029%=      5-min Rain = 0
KMC1 011757Z 09002KT 34/14 A3009 RMK A01 T03440138  RH  029%=      5-min Rain = 0
KMC1 011758Z 08006KT 34/14 A3009 RMK A01 T03430141  RH  030%=      5-min Rain = 0
KMC1 011759Z 08005KT 34/14 A3009 RMK A01 T03430143  RH  030%=      5-min Rain = 0
KMC1 011800Z 05007KT 35/14 A3009 RMK A01 T03450144  RH  030%=      5-min Rain = 0
KMC1 011801Z 05008KT 34/14 A3009 RMK A01 T03440143  RH  030%=      5-min Rain = 0
KMC1 011802Z 08008KT 34/14 A3009 RMK A01 T03430144  RH  030%=      5-min Rain = 0
KMC1 011803Z 07006G11KT 34/14 A3009 RMK A01 T03420143  RH  030%=      5-min Rain = 0
KMC1 011804Z 08006KT 34/14 A3009 RMK A01 T03420144  RH  031%=      5-min Rain = 0
KMC1 011805Z 09002KT 34/14 A3009 RMK A01 T03410143  RH  030%=      5-min Rain = 0
KMC1 011806Z 14005KT 34/14 A3008 RMK A01 T03380143  RH  031%=      5-min Rain = 0
KMC1 011807Z 14005KT 33/14 A3008 RMK A01 T03340143  RH  032%=      5-min Rain = 0
KMC1 011808Z 13003KT 33/14 A3008 RMK A01 T03330143  RH  032%=      5-min Rain = 0
KMC1 011809Z 18003KT 34/14 A3008 RMK A01 T03350143  RH  031%=      5-min Rain = 0
KMC1 011810Z 27001KT 34/14 A3008 RMK A01 T03360142  RH  031%=      5-min Rain = 0
KMC1 011811Z 03007KT 34/15 A3008 RMK A01 T03360146  RH  032%=      5-min Rain = 0
KMC1 011812Z 03008KT 34/15 A3008 RMK A01 T03410147  RH  031%=      5-min Rain = 0
KMC1 011813Z 02008KT 34/15 A3008 RMK A01 T03430145  RH  030%=      5-min Rain = 0
KMC1 011814Z 03003KT 34/14 A3008 RMK A01 T03390142  RH  031%=      5-min Rain = 0
KMC1 011815Z 08002KT 33/14 A3008 RMK A01 T03340143  RH  032%=      5-min Rain = 0
KMC1 011816Z 09004KT 33/14 A3008 RMK A01 T03340144  RH  032%=      5-min Rain = 0
KMC1 011817Z 13002KT 33/14 A3008 RMK A01 T03340144  RH  032%=      5-min Rain = 0
KMC1 011818Z 08003KT 33/14 A3008 RMK A01 T03340144  RH  032%=      5-min Rain = 0
KMC1 011819Z 10002KT 34/15 A3008 RMK A01 T03350145  RH  032%=      5-min Rain = 0
KMC1 011820Z 10002KT 34/15 A3008 RMK A01 T03370145  RH  032%=      5-min Rain = 0
KMC1 011821Z 14001KT 34/14 A3008 RMK A01 T03370144  RH  031%=      5-min Rain = 0
KMC1 011822Z 03009KT 34/15 A3008 RMK A01 T03360146  RH  032%=      5-min Rain = 0
KMC1 011823Z 04008KT 34/15 A3008 RMK A01 T03390149  RH  032%=      5-min Rain = 0
KMC1 011824Z 04006KT 34/15 A3008 RMK A01 T03440150  RH  031%=      5-min Rain = 0
KMC1 011825Z 03006KT 35/15 A3008 RMK A01 T03480152  RH  031%=      5-min Rain = 0
KMC1 011826Z 03006KT 35/15 A3008 RMK A01 T03500151  RH  030%=      5-min Rain = 0
KMC1 011827Z 06007KT 35/15 A3008 RMK A01 T03490149  RH  030%=      5-min Rain = 0
KMC1 011828Z 05004KT 35/15 A3008 RMK A01 T03450148  RH  031%=      5-min Rain = 0
KMC1 011829Z 06005KT 34/15 A3008 RMK A01 T03400147  RH  031%=      5-min Rain = 0
KMC1 011830Z 05005KT 34/15 A3008 RMK A01 T03390149  RH  032%=      5-min Rain = 0
KMC1 011831Z 03007KT 34/15 A3008 RMK A01 T03400147  RH  031%=      5-min Rain = 0
KMC1 011832Z 35007KT 34/15 A3008 RMK A01 T03390146  RH  031%=      5-min Rain = 0
KMC1 011833Z 06005KT 34/15 A3008 RMK A01 T03380146  RH  032%=      5-min Rain = 0
KMC1 011834Z 13006KT 34/15 A3008 RMK A01 T03390146  RH  031%=      5-min Rain = 0
KMC1 011835Z 18003KT 34/14 A3008 RMK A01 T03360144  RH  032%=      5-min Rain = 0
KMC1 011836Z 18002KT 33/15 A3008 RMK A01 T03330145  RH  032%=      5-min Rain = 0
KMC1 011837Z 23002KT 33/15 A3008 RMK A01 T03330145  RH  032%=      5-min Rain = 0
KMC1 011838Z 26002KT 34/15 A3007 RMK A01 T03360145  RH  032%=      5-min Rain = 0
KMC1 011839Z 16003KT 34/15 A3007 RMK A01 T03430149  RH  031%=      5-min Rain = 0
KMC1 011840Z 09004KT 35/15 A3007 RMK A01 T03530151  RH  030%=      5-min Rain = 0
KMC1 011841Z 09005KT 36/14 A3007 RMK A01 T03580144  RH  028%=      5-min Rain = 0
KMC1 011842Z 08007KT 35/14 A3007 RMK A01 T03530144  RH  029%=      5-min Rain = 0
KMC1 011843Z 10005KT 35/14 A3007 RMK A01 T03500143  RH  029%=      5-min Rain = 0
KMC1 011844Z 08008KT 35/14 A3007 RMK A01 T03480143  RH  029%=      5-min Rain = 0
KMC1 011845Z 06008G13KT 35/15 A3007 RMK A01 T03480147  RH  030%=      5-min Rain = 0
KMC1 011846Z 05006KT 35/15 A3007 RMK A01 T03520148  RH  030%=      5-min Rain = 0
KMC1 011847Z 08009KT 35/15 A3007 RMK A01 T03540148  RH  029%=      5-min Rain = 0
KMC1 011848Z 08007KT 36/15 A3007 RMK A01 T03550147  RH  029%=      5-min Rain = 0
KMC1 011849Z 08006KT 35/15 A3007 RMK A01 T03520147  RH  029%=      5-min Rain = 0
KMC1 011850Z 07006KT 35/15 A3007 RMK A01 T03510146  RH  029%=      5-min Rain = 0
KMC1 011851Z 09005G10KT 35/15 A3007 RMK A01 T03520151  RH  030%=      5-min Rain = 0
KMC1 011852Z 13005KT 36/15 A3007 RMK A01 T03570146  RH  028%=      5-min Rain = 0
KMC1 011853Z 05007G12KT 36/14 A3007 RMK A01 T03550144  RH  028%=      5-min Rain = 0
KMC1 011854Z 04003KT 35/14 A3007 RMK A01 T03470140  RH  029%=      5-min Rain = 0
KMC1 011855Z 04003KT 34/14 A3007 RMK A01 T03420140  RH  030%=      5-min Rain = 0
KMC1 011856Z 05005KT 34/14 A3007 RMK A01 T03380143  RH  031%=      5-min Rain = 0
KMC1 011857Z 04005KT 34/14 A3007 RMK A01 T03430142  RH  030%=      5-min Rain = 0
KMC1 011858Z 08001KT 35/14 A3007 RMK A01 T03450142  RH  030%=      5-min Rain = 0
KMC1 011859Z 19000KT 35/14 A3007 RMK A01 T03460141  RH  029%=      5-min Rain = 0
KMC1 011900Z 36002KT 35/14 A3007 RMK A01 T03460142  RH  029%=      5-min Rain = 0
KMC1 011901Z 02003KT 34/14 A3007 RMK A01 T03440141  RH  030%=      5-min Rain = 0
KMC1 011902Z 34004KT 34/14 A3007 RMK A01 T03410140  RH  030%=      5-min Rain = 0
KMC1 011903Z 36003KT 34/14 A3007 RMK A01 T03370138  RH  030%=      5-min Rain = 0
KMC1 011904Z 02004KT 34/14 A3007 RMK A01 T03350140  RH  031%=      5-min Rain = 0
KMC1 011905Z 02007KT 33/14 A3007 RMK A01 T03330138  RH  031%=      5-min Rain = 0
KMC1 011906Z 03007KT 33/14 A3007 RMK A01 T03320141  RH  031%=      5-min Rain = 0
KMC1 011907Z 04004KT 34/14 A3007 RMK A01 T03360141  RH  031%=      5-min Rain = 0
KMC1 011908Z 02003KT 34/14 A3007 RMK A01 T03390141  RH  030%=      5-min Rain = 0
KMC1 011909Z 02003KT 34/14 A3007 RMK A01 T03400141  RH  030%=      5-min Rain = 0
KMC1 011910Z 07001KT 34/14 A3006 RMK A01 T03400141  RH  030%=      5-min Rain = 0
KMC1 011911Z 17001KT 34/14 A3006 RMK A01 T03410142  RH  030%=      5-min Rain = 0
KMC1 011912Z 08003KT 35/15 A3006 RMK A01 T03450146  RH  030%=      5-min Rain = 0
KMC1 011913Z 07003KT 35/14 A3006 RMK A01 T03520143  RH  029%=      5-min Rain = 0
KMC1 011914Z 03001KT 35/14 A3006 RMK A01 T03520143  RH  029%=      5-min Rain = 0
KMC1 011915Z 09002KT 35/14 A3007 RMK A01 T03500140  RH  029%=      5-min Rain = 0
KMC1 011916Z 35003KT 35/14 A3006 RMK A01 T03470141  RH  029%=      5-min Rain = 0
KMC1 011917Z 00005KT 34/14 A3006 RMK A01 T03440138  RH  029%=      5-min Rain = 0
KMC1 011918Z 03004KT 34/14 A3006 RMK A01 T03410138  RH  029%=      5-min Rain = 0
KMC1 011919Z 02004KT 34/14 A3006 RMK A01 T03430142  RH  030%=      5-min Rain = 0
KMC1 011920Z 05005KT 35/14 A3006 RMK A01 T03500144  RH  029%=      5-min Rain = 0
KMC1 011921Z 06005KT 35/14 A3006 RMK A01 T03540142  RH  028%=      5-min Rain = 0
KMC1 011922Z 02005KT 35/14 A3006 RMK A01 T03530139  RH  028%=      5-min Rain = 0
KMC1 011923Z 03003KT 35/14 A3006 RMK A01 T03470140  RH  029%=      5-min Rain = 0
KMC1 011924Z 01003KT 35/14 A3006 RMK A01 T03450141  RH  029%=      5-min Rain = 0
KMC1 011925Z 01005KT 34/14 A3006 RMK A01 T03440141  RH  030%=      5-min Rain = 0
KMC1 011926Z 02007G13KT 34/14 A3006 RMK A01 T03420143  RH  030%=      5-min Rain = 0
KMC1 011927Z 03008KT 34/14 A3006 RMK A01 T03410143  RH  030%=      5-min Rain = 0
KMC1 011928Z 00007KT 34/14 A3006 RMK A01 T03380142  RH  031%=      5-min Rain = 0
KMC1 011929Z 36003KT 34/14 A3006 RMK A01 T03350140  RH  031%=      5-min Rain = 0
KMC1 011930Z 07004KT 33/14 A3006 RMK A01 T03330143  RH  032%=      5-min Rain = 0
KMC1 011931Z 04005KT 34/14 A3006 RMK A01 T03360144  RH  031%=      5-min Rain = 0
KMC1 011932Z 04004KT 34/14 A3006 RMK A01 T03390144  RH  031%=      5-min Rain = 0
KMC1 011933Z 02005KT 34/14 A3006 RMK A01 T03430144  RH  030%=      5-min Rain = 0
KMC1 011934Z 01005KT 35/14 A3006 RMK A01 T03450143  RH  030%=      5-min Rain = 0
KMC1 011935Z 01004KT 34/14 A3006 RMK A01 T03440142  RH  030%=      5-min Rain = 0
KMC1 011936Z 03001KT 34/14 A3006 RMK A01 T03430144  RH  030%=      5-min Rain = 0
KMC1 011937Z 09001KT 35/15 A3006 RMK A01 T03470146  RH  030%=      5-min Rain = 0
KMC1 011938Z 11002KT 35/15 A3006 RMK A01 T03540147  RH  029%=      5-min Rain = 0
KMC1 011939Z 11003KT 36/14 A3006 RMK A01 T03570144  RH  028%=      5-min Rain = 0
KMC1 011940Z 10003KT 36/14 A3006 RMK A01 T03570142  RH  028%=      5-min Rain = 0
KMC1 011941Z 10005KT 35/14 A3006 RMK A01 T03540142  RH  028%=      5-min Rain = 0
KMC1 011942Z 07005KT 36/14 A3006 RMK A01 T03550142  RH  028%=      5-min Rain = 0
KMC1 011943Z 06005KT 36/14 A3006 RMK A01 T03560143  RH  028%=      5-min Rain = 0
KMC1 011944Z 02009KT 36/14 A3006 RMK A01 T03590144  RH  028%=      5-min Rain = 0
KMC1 011945Z 01008G13KT 36/14 A3006 RMK A01 T03590139  RH  027%=      5-min Rain = 0
KMC1 011946Z 00008KT 35/14 A3006 RMK A01 T03490138  RH  028%=      5-min Rain = 0
KMC1 011947Z 00008KT 35/14 A3006 RMK A01 T03470140  RH  029%=      5-min Rain = 0
KMC1 011948Z 36006KT 35/14 A3006 RMK A01 T03480140  RH  029%=      5-min Rain = 0
KMC1 011949Z 00004KT 35/14 A3006 RMK A01 T03500141  RH  029%=      5-min Rain = 0
KMC1 011950Z 36003KT 35/14 A3006 RMK A01 T03530141  RH  028%=      5-min Rain = 0
KMC1 011951Z 31002KT 35/14 A3005 RMK A01 T03530139  RH  028%=      5-min Rain = 0
KMC1 011952Z 32004KT 35/14 A3005 RMK A01 T03530138  RH  028%=      5-min Rain = 0
KMC1 011953Z 34008KT 35/14 A3005 RMK A01 T03530138  RH  028%=      5-min Rain = 0
KMC1 011954Z 34005KT 35/14 A3005 RMK A01 T03540139  RH  028%=      5-min Rain = 0
KMC1 011955Z 02008KT 36/14 A3005 RMK A01 T03550138  RH  027%=      5-min Rain = 0
KMC1 011956Z 03007KT 36/14 A3005 RMK A01 T03590139  RH  027%=      5-min Rain = 0
KMC1 011957Z 03004KT 36/14 A3005 RMK A01 T03600136  RH  026%=      5-min Rain = 0
KMC1 011958Z 04003KT 36/14 A3005 RMK A01 T03550135  RH  027%=      5-min Rain = 0
KMC1 011959Z 33004KT 35/14 A3005 RMK A01 T03530137  RH  027%=      5-min Rain = 0
KMC1 012000Z 34005KT 35/14 A3005 RMK A01 T03500140  RH  028%=      5-min Rain = 0
KMC1 012001Z 02005KT 35/14 A3005 RMK A01 T03530140  RH  028%=      5-min Rain = 0
KMC1 012002Z 05006KT 35/14 A3005 RMK A01 T03540142  RH  028%=      5-min Rain = 0
KMC1 012003Z 10007KT 36/14 A3005 RMK A01 T03560143  RH  028%=      5-min Rain = 0
KMC1 012004Z 10009KT 36/14 A3005 RMK A01 T03560144  RH  028%=      5-min Rain = 0
KMC1 012005Z 11008KT 35/14 A3005 RMK A01 T03530143  RH  028%=      5-min Rain = 0
KMC1 012006Z 11004KT 35/14 A3005 RMK A01 T03480140  RH  029%=      5-min Rain = 0
KMC1 012007Z 11005KT 34/14 A3005 RMK A01 T03430141  RH  030%=      5-min Rain = 0
KMC1 012008Z 10006KT 34/14 A3005 RMK A01 T03410142  RH  030%=      5-min Rain = 0
KMC1 012009Z 11005KT 35/15 A3005 RMK A01 T03450145  RH  030%=      5-min Rain = 0
KMC1 012010Z 06005KT 35/15 A3005 RMK A01 T03520146  RH  029%=      5-min Rain = 0
KMC1 012011Z 08003KT 36/14 A3005 RMK A01 T03560142  RH  028%=      5-min Rain = 0
KMC1 012012Z 05004G10KT 36/14 A3005 RMK A01 T03550144  RH  028%=      5-min Rain = 0
KMC1 012013Z 04010KT 36/14 A3004 RMK A01 T03580143  RH  028%=      5-min Rain = 0
KMC1 012014Z 03011KT 36/14 A3004 RMK A01 T03590142  RH  027%=      5-min Rain = 0
KMC1 012015Z 03009KT 36/14 A3004 RMK A01 T03580142  RH  027%=      5-min Rain = 0
KMC1 012016Z 04008KT 36/14 A3004 RMK A01 T03600143  RH  027%=      5-min Rain = 0
KMC1 012017Z 04008KT 36/14 A3004 RMK A01 T03600139  RH  027%=      5-min Rain = 0
KMC1 012018Z 03006KT 36/14 A3004 RMK A01 T03550137  RH  027%=      5-min Rain = 0
KMC1 012019Z 04007KT 35/14 A3004 RMK A01 T03520138  RH  028%=      5-min Rain = 0
KMC1 012020Z 03007KT 35/14 A3004 RMK A01 T03510138  RH  028%=      5-min Rain = 0
KMC1 012021Z 05006KT 35/14 A3004 RMK A01 T03510138  RH  028%=      5-min Rain = 0
KMC1 012022Z 03006KT 35/14 A3004 RMK A01 T03510137  RH  028%=      5-min Rain = 0
KMC1 012023Z 03008KT 35/14 A3004 RMK A01 T03500135  RH  028%=      5-min Rain = 0
KMC1 012024Z 03008KT 35/13 A3004 RMK A01 T03470132  RH  027%=      5-min Rain = 0
KMC1 012025Z 03006KT 34/13 A3004 RMK A01 T03440130  RH  027%=      5-min Rain = 0
KMC1 012026Z 05003KT 34/13 A3004 RMK A01 T03410131  RH  028%=      5-min Rain = 0
KMC1 012027Z 05001KT 34/13 A3004 RMK A01 T03380132  RH  029%=      5-min Rain = 0
KMC1 012028Z 01002KT 34/13 A3004 RMK A01 T03370132  RH  029%=      5-min Rain = 0
KMC1 012029Z 02005KT 34/13 A3004 RMK A01 T03370133  RH  029%=      5-min Rain = 0
KMC1 012030Z 05005KT 34/13 A3004 RMK A01 T03380134  RH  029%=      5-min Rain = 0
KMC1 012031Z 07008G13KT 34/14 A3004 RMK A01 T03400137  RH  029%=      5-min Rain = 0
KMC1 012032Z 05009KT 34/14 A3004 RMK A01 T03400136  RH  029%=      5-min Rain = 0
KMC1 012033Z 06007KT 34/14 A3004 RMK A01 T03390136  RH  029%=      5-min Rain = 0
KMC1 012034Z 06006KT 34/14 A3004 RMK A01 T03370135  RH  030%=      5-min Rain = 0
KMC1 012035Z 05007KT 34/14 A3004 RMK A01 T03370136  RH  030%=      5-min Rain = 0
KMC1 012036Z 04007KT 34/14 A3004 RMK A01 T03360135  RH  030%=      5-min Rain = 0
KMC1 012037Z 05007KT 34/14 A3004 RMK A01 T03360135  RH  030%=      5-min Rain = 0
KMC1 012038Z 05007KT 34/13 A3004 RMK A01 T03360134  RH  030%=      5-min Rain = 0
KMC1 012039Z 02003KT 34/13 A3004 RMK A01 T03360131  RH  029%=      5-min Rain = 0
KMC1 012040Z 35000KT 33/13 A3003 RMK A01 T03340133  RH  030%=      5-min Rain = 0
KMC1 012041Z 08002KT 33/13 A3003 RMK A01 T03340132  RH  029%=      5-min Rain = 0
KMC1 012042Z 09004KT 34/13 A3003 RMK A01 T03350131  RH  029%=      5-min Rain = 0
KMC1 012043Z 06002KT 34/13 A3003 RMK A01 T03360131  RH  029%=      5-min Rain = 0
KMC1 012044Z 09003KT 34/13 A3003 RMK A01 T03370131  RH  029%=      5-min Rain = 0
KMC1 012045Z 09004KT 34/14 A3003 RMK A01 T03390135  RH  029%=      5-min Rain = 0
KMC1 012046Z 08005KT 34/14 A3003 RMK A01 T03430136  RH  029%=      5-min Rain = 0
KMC1 012047Z 06003KT 35/14 A3003 RMK A01 T03460136  RH  028%=      5-min Rain = 0
KMC1 012048Z 08004KT 35/14 A3003 RMK A01 T03480135  RH  028%=      5-min Rain = 0
KMC1 012049Z 11003KT 35/14 A3003 RMK A01 T03480135  RH  028%=      5-min Rain = 0
KMC1 012050Z 15003KT 35/13 A3003 RMK A01 T03470133  RH  028%=      5-min Rain = 0
KMC1 012051Z 16004KT 34/13 A3003 RMK A01 T03440133  RH  028%=      5-min Rain = 0
KMC1 012052Z 16001KT 34/13 A3003 RMK A01 T03420131  RH  028%=      5-min Rain = 0
KMC1 012053Z 11003KT 34/13 A3003 RMK A01 T03400132  RH  028%=      5-min Rain = 0
KMC1 012054Z 08004KT 34/13 A3003 RMK A01 T03410132  RH  028%=      5-min Rain = 0
KMC1 012055Z 11005KT 34/13 A3003 RMK A01 T03430132  RH  028%=      5-min Rain = 0
KMC1 012056Z 10003KT 34/13 A3003 RMK A01 T03440134  RH  028%=      5-min Rain = 0
KMC1 012057Z 05005KT 35/14 A3003 RMK A01 T03480136  RH  028%=      5-min Rain = 0
KMC1 012058Z 04007KT 35/14 A3003 RMK A01 T03510135  RH  027%=      5-min Rain = 0
KMC1 012059Z 04009KT 35/14 A3002 RMK A01 T03540138  RH  028%=      5-min Rain = 0
KMC1 012100Z 04009KT 36/14 A3003 RMK A01 T03590138  RH  027%=      5-min Rain = 0
KMC1 012101Z 05007KT 36/14 A3003 RMK A01 T03570135  RH  026%=      5-min Rain = 0
KMC1 012102Z 05005KT 35/14 A3002 RMK A01 T03540135  RH  027%=      5-min Rain = 0
KMC1 012103Z 04003KT 35/14 A3002 RMK A01 T03520136  RH  027%=      5-min Rain = 0
KMC1 012104Z 08003KT 35/14 A3002 RMK A01 T03530136  RH  027%=      5-min Rain = 0
KMC1 012105Z 09008KT 36/14 A3002 RMK A01 T03550137  RH  027%=      5-min Rain = 0
KMC1 012106Z 10007KT 36/14 A3002 RMK A01 T03570137  RH  027%=      5-min Rain = 0
KMC1 012107Z 10004KT 36/14 A3002 RMK A01 T03560136  RH  027%=      5-min Rain = 0
KMC1 012108Z 09009KT 36/14 A3002 RMK A01 T03550138  RH  027%=      5-min Rain = 0
KMC1 012109Z 08007KT 36/14 A3002 RMK A01 T03600139  RH  027%=      5-min Rain = 0
KMC1 012110Z 08008KT 36/14 A3002 RMK A01 T03640138  RH  026%=      5-min Rain = 0
KMC1 012111Z 08004KT 37/14 A3002 RMK A01 T03650139  RH  026%=      5-min Rain = 0
KMC1 012112Z 08004KT 37/14 A3002 RMK A01 T03670140  RH  026%=      5-min Rain = 0
KMC1 012113Z 09005KT 37/14 A3002 RMK A01 T03700140  RH  025%=      5-min Rain = 0
KMC1 012114Z 09006KT 37/14 A3002 RMK A01 T03670138  RH  025%=      5-min Rain = 0
KMC1 012115Z 05006KT 36/14 A3002 RMK A01 T03600136  RH  026%=      5-min Rain = 0
KMC1 012116Z 07005KT 36/14 A3002 RMK A01 T03560135  RH  027%=      5-min Rain = 0
KMC1 012117Z 08006KT 36/14 A3002 RMK A01 T03550136  RH  027%=      5-min Rain = 0
KMC1 012118Z 08005KT 36/14 A3002 RMK A01 T03550135  RH  027%=      5-min Rain = 0
KMC1 012119Z 10004KT 36/14 A3002 RMK A01 T03560136  RH  027%=      5-min Rain = 0
KMC1 012120Z 06003KT 36/14 A3002 RMK A01 T03550135  RH  027%=      5-min Rain = 0
KMC1 012121Z 06007KT 35/14 A3002 RMK A01 T03540137  RH  027%=      5-min Rain = 0
KMC1 012122Z 03007G12KT 35/14 A3002 RMK A01 T03530138  RH  027%=      5-min Rain = 0
KMC1 012123Z 04013KT 35/14 A3002 RMK A01 T03540136  RH  027%=      5-min Rain = 0
KMC1 012124Z 04008G13KT 35/13 A3002 RMK A01 T03500134  RH  027%=      5-min Rain = 0
KMC1 012125Z 04010KT 35/14 A3002 RMK A01 T03480135  RH  028%=      5-min Rain = 0
KMC1 012126Z 04011KT 35/14 A3002 RMK A01 T03480135  RH  028%=      5-min Rain = 0
KMC1 012127Z 03009KT 35/13 A3002 RMK A01 T03490134  RH  027%=      5-min Rain = 0
KMC1 012128Z 04008KT 35/14 A3002 RMK A01 T03480135  RH  028%=      5-min Rain = 0
KMC1 012129Z 04008KT 35/14 A3002 RMK A01 T03500136  RH  028%=      5-min Rain = 0
KMC1 012130Z 03007KT 35/13 A3002 RMK A01 T03520134  RH  027%=      5-min Rain = 0
KMC1 012131Z 05004KT 35/14 A3002 RMK A01 T03500135  RH  028%=      5-min Rain = 0
KMC1 012132Z 06006KT 35/14 A3002 RMK A01 T03520137  RH  028%=      5-min Rain = 0
KMC1 012133Z 03007KT 35/14 A3002 RMK A01 T03530135  RH  027%=      5-min Rain = 0
KMC1 012134Z 02005KT 35/13 A3002 RMK A01 T03500134  RH  027%=      5-min Rain = 0
KMC1 012135Z 03005KT 35/14 A3002 RMK A01 T03470135  RH  028%=      5-min Rain = 0
KMC1 012136Z 03007KT 35/14 A3002 RMK A01 T03470135  RH  028%=      5-min Rain = 0
KMC1 012137Z 03005KT 35/13 A3002 RMK A01 T03460134  RH  028%=      5-min Rain = 0
KMC1 012138Z 04004KT 35/13 A3002 RMK A01 T03450134  RH  028%=      5-min Rain = 0
KMC1 012139Z 03004KT 34/13 A3002 RMK A01 T03440132  RH  028%=      5-min Rain = 0
KMC1 012140Z 03007KT 34/13 A3002 RMK A01 T03420133  RH  028%=      5-min Rain = 0
KMC1 012141Z 04006KT 34/13 A3002 RMK A01 T03410132  RH  028%=      5-min Rain = 0
KMC1 012142Z 04005KT 34/13 A3002 RMK A01 T03410132  RH  028%=      5-min Rain = 0
KMC1 012143Z 04003KT 34/13 A3002 RMK A01 T03410131  RH  028%=      5-min Rain = 0
KMC1 012144Z 05003KT 34/13 A3002 RMK A01 T03400132  RH  029%=      5-min Rain = 0
KMC1 012145Z 07004KT 34/13 A3002 RMK A01 T03400132  RH  028%=      5-min Rain = 0
KMC1 012146Z 05003KT 34/13 A3002 RMK A01 T03400131  RH  028%=      5-min Rain = 0
KMC1 012147Z 05000KT 34/13 A3002 RMK A01 T03400130  RH  028%=      5-min Rain = 0
KMC1 012148Z 06000KT 34/13 A3002 RMK A01 T03390130  RH  028%=      5-min Rain = 0
KMC1 012149Z 04001KT 34/13 A3002 RMK A01 T03390131  RH  028%=      5-min Rain = 0
KMC1 012150Z 07001KT 34/13 A3002 RMK A01 T03390131  RH  028%=      5-min Rain = 0
KMC1 012151Z 09002KT 34/13 A3002 RMK A01 T03390131  RH  028%=      5-min Rain = 0
KMC1 012152Z 07003KT 34/13 A3002 RMK A01 T03390132  RH  029%=      5-min Rain = 0
KMC1 012153Z 07005KT 34/13 A3002 RMK A01 T03390130  RH  028%=      5-min Rain = 0
KMC1 012154Z 08002KT 34/13 A3002 RMK A01 T03390131  RH  028%=      5-min Rain = 0
KMC1 012155Z 08003KT 34/13 A3002 RMK A01 T03390132  RH  029%=      5-min Rain = 0
KMC1 012156Z 07003KT 34/13 A3002 RMK A01 T03390131  RH  028%=      5-min Rain = 0
KMC1 012157Z 09002KT 34/13 A3002 RMK A01 T03390131  RH  028%=      5-min Rain = 0
KMC1 012158Z 07003KT 34/13 A3002 RMK A01 T03390131  RH  028%=      5-min Rain = 0
KMC1 012159Z 08002KT 34/13 A3002 RMK A01 T03390131  RH  028%=      5-min Rain = 0
KMC1 012200Z 09003KT 34/13 A3002 RMK A01 T03400132  RH  029%=      5-min Rain = 0
KMC1 012201Z 08003KT 34/13 A3002 RMK A01 T03400131  RH  028%=      5-min Rain = 0
KMC1 012202Z 09003KT 34/13 A3002 RMK A01 T03400131  RH  028%=      5-min Rain = 0
KMC1 012203Z 08003KT 34/13 A3002 RMK A01 T03400131  RH  028%=      5-min Rain = 0
KMC1 012204Z 12001KT 34/13 A3002 RMK A01 T03410132  RH  028%=      5-min Rain = 0
KMC1 012205Z 13002KT 34/13 A3002 RMK A01 T03410131  RH  028%=      5-min Rain = 0
KMC1 012206Z 03000KT 34/13 A3002 RMK A01 T03410132  RH  028%=      5-min Rain = 0
KMC1 012207Z 10001KT 34/13 A3002 RMK A01 T03420134  RH  028%=      5-min Rain = 0
KMC1 012208Z 10003KT 34/13 A3002 RMK A01 T03420132  RH  028%=      5-min Rain = 0
KMC1 012209Z 08004KT 34/13 A3002 RMK A01 T03420131  RH  028%=      5-min Rain = 0
KMC1 012210Z 07002KT 34/13 A3002 RMK A01 T03420133  RH  028%=      5-min Rain = 0
KMC1 012211Z 06004KT 34/13 A3002 RMK A01 T03420133  RH  028%=      5-min Rain = 0
KMC1 012212Z 07003KT 34/13 A3001 RMK A01 T03420132  RH  028%=      5-min Rain = 0
KMC1 012213Z 07006KT 34/13 A3001 RMK A01 T03420132  RH  028%=      5-min Rain = 0
KMC1 012214Z 06005KT 34/13 A3001 RMK A01 T03410131  RH  028%=      5-min Rain = 0
KMC1 012215Z 06003KT 34/13 A3001 RMK A01 T03410131  RH  028%=      5-min Rain = 0
KMC1 012216Z 07003KT 34/13 A3001 RMK A01 T03430133  RH  028%=      5-min Rain = 0
KMC1 012217Z 08004KT 35/13 A3001 RMK A01 T03460133  RH  028%=      5-min Rain = 0
KMC1 012218Z 06002KT 35/14 A3001 RMK A01 T03500135  RH  027%=      5-min Rain = 0
KMC1 012219Z 03005KT 36/14 A3001 RMK A01 T03560137  RH  027%=      5-min Rain = 0
KMC1 012220Z 03004KT 36/13 A3001 RMK A01 T03580134  RH  026%=      5-min Rain = 0
KMC1 012221Z 05006G11KT 36/14 A3001 RMK A01 T03570135  RH  026%=      5-min Rain = 0
KMC1 012222Z 04006KT 36/13 A3001 RMK A01 T03570133  RH  026%=      5-min Rain = 0
KMC1 012223Z 06005KT 36/13 A3001 RMK A01 T03560132  RH  026%=      5-min Rain = 0
KMC1 012224Z 06003KT 36/13 A3001 RMK A01 T03550132  RH  026%=      5-min Rain = 0
KMC1 012225Z 05003KT 36/13 A3001 RMK A01 T03560132  RH  026%=      5-min Rain = 0
KMC1 012226Z 06004KT 36/13 A3001 RMK A01 T03570132  RH  026%=      5-min Rain = 0
KMC1 012227Z 07003KT 36/13 A3001 RMK A01 T03590134  RH  026%=      5-min Rain = 0
KMC1 012228Z 07004KT 36/14 A3001 RMK A01 T03610135  RH  026%=      5-min Rain = 0
KMC1 012229Z 06007KT 36/14 A3001 RMK A01 T03640135  RH  025%=      5-min Rain = 0
KMC1 012230Z 06006KT 37/13 A3001 RMK A01 T03650134  RH  025%=      5-min Rain = 0
KMC1 012231Z 07005KT 36/13 A3001 RMK A01 T03630132  RH  025%=      5-min Rain = 0
KMC1 012232Z 08005KT 36/13 A3001 RMK A01 T03600132  RH  025%=      5-min Rain = 0
KMC1 012233Z 07005KT 36/13 A3001 RMK A01 T03590133  RH  026%=      5-min Rain = 0
KMC1 012234Z 06005KT 36/13 A30 RMK A01 T03570131  RH  026%=      5-min Rain = 0
KMC1 012235Z 06004KT 36/13 A30 RMK A01 T03550130  RH  026%=      5-min Rain = 0
KMC1 012236Z 07004G9KT 35/13 A30 RMK A01 T03530132  RH  026%=      5-min Rain = 0
KMC1 012237Z 05007KT 35/13 A30 RMK A01 T03530133  RH  027%=      5-min Rain = 0
KMC1 012238Z 05007KT 35/13 A30 RMK A01 T03540133  RH  026%=      5-min Rain = 0
KMC1 012239Z 06006KT 36/13 A30 RMK A01 T03550132  RH  026%=      5-min Rain = 0
KMC1 012240Z 04006KT 36/13 A30 RMK A01 T03570133  RH  026%=      5-min Rain = 0
KMC1 012241Z 04007KT 36/13 A30 RMK A01 T03580130  RH  026%=      5-min Rain = 0
KMC1 012242Z 07003KT 36/13 A30 RMK A01 T03550130  RH  026%=      5-min Rain = 0
KMC1 012243Z 04003G9KT 36/13 A30 RMK A01 T03550129  RH  026%=      5-min Rain = 0
KMC1 012244Z 04008KT 36/13 A30 RMK A01 T03550130  RH  026%=      5-min Rain = 0
KMC1 012245Z 06004KT 36/13 A30 RMK A01 T03550133  RH  026%=      5-min Rain = 0
KMC1 012246Z 04004KT 36/13 A30 RMK A01 T03570131  RH  026%=      5-min Rain = 0
KMC1 012247Z 06006KT 36/13 A30 RMK A01 T03580133  RH  026%=      5-min Rain = 0
KMC1 012248Z 06006KT 36/13 A30 RMK A01 T03600134  RH  026%=      5-min Rain = 0
KMC1 012249Z 06008KT 36/14 A30 RMK A01 T03630135  RH  025%=      5-min Rain = 0
KMC1 012250Z 04006KT 37/13 A30 RMK A01 T03650133  RH  025%=      5-min Rain = 0
KMC1 012251Z 01008KT 36/13 A30 RMK A01 T03630133  RH  025%=      5-min Rain = 0
KMC1 012252Z 03009KT 36/13 A30 RMK A01 T03600133  RH  026%=      5-min Rain = 0
KMC1 012253Z 04008KT 36/14 A30 RMK A01 T03610135  RH  026%=      5-min Rain = 0
KMC1 012254Z 04006KT 37/14 A30 RMK A01 T03650136  RH  025%=      5-min Rain = 0
KMC1 012255Z 04005KT 37/14 A30 RMK A01 T03670136  RH  025%=      5-min Rain = 0
KMC1 012256Z 03008KT 37/14 A30 RMK A01 T03680135  RH  025%=      5-min Rain = 0
KMC1 012257Z 05010KT 37/13 A30 RMK A01 T03660134  RH  025%=      5-min Rain = 0
KMC1 012258Z 04011KT 36/13 A30 RMK A01 T03630132  RH  025%=      5-min Rain = 0
KMC1 012259Z 04009KT 36/13 A30 RMK A01 T03600132  RH  025%=      5-min Rain = 0
KMC1 012300Z 03009KT 36/13 A30 RMK A01 T03580132  RH  026%=      5-min Rain = 0
KMC1 012301Z 03007KT 36/13 A30 RMK A01 T03580132  RH  026%=      5-min Rain = 0
KMC1 012302Z 03009KT 36/13 A30 RMK A01 T03570132  RH  026%=      5-min Rain = 0
KMC1 012303Z 03008KT 36/13 A30 RMK A01 T03550130  RH  026%=      5-min Rain = 0
KMC1 012304Z 03007KT 35/13 A30 RMK A01 T03510130  RH  026%=      5-min Rain = 0
KMC1 012305Z 05006KT 35/13 A30 RMK A01 T03500130  RH  027%=      5-min Rain = 0
KMC1 012306Z 08005KT 35/13 A30 RMK A01 T03500131  RH  027%=      5-min Rain = 0
KMC1 012307Z 08004KT 35/13 A30 RMK A01 T03500130  RH  027%=      5-min Rain = 0
KMC1 012308Z 08005KT 35/13 A30 RMK A01 T03510131  RH  027%=      5-min Rain = 0
KMC1 012309Z 06006KT 35/13 A30 RMK A01 T03520131  RH  026%=      5-min Rain = 0
KMC1 012310Z 07005KT 35/13 A30 RMK A01 T03540131  RH  026%=      5-min Rain = 0
KMC1 012311Z 07003KT 36/13 A30 RMK A01 T03560131  RH  026%=      5-min Rain = 0
KMC1 012312Z 03008KT 36/13 A30 RMK A01 T03580131  RH  026%=      5-min Rain = 0
KMC1 012313Z 03007KT 36/13 A30 RMK A01 T03560130  RH  026%=      5-min Rain = 0
KMC1 012314Z 02004KT 36/13 A30 RMK A01 T03550130  RH  026%=      5-min Rain = 0
KMC1 012315Z 03004KT 35/13 A30 RMK A01 T03540129  RH  026%=      5-min Rain = 0
KMC1 012316Z 08003KT 35/13 A30 RMK A01 T03540131  RH  026%=      5-min Rain = 0
KMC1 012317Z 07003KT 36/13 A30 RMK A01 T03560130  RH  026%=      5-min Rain = 0
KMC1 012318Z 05001KT 36/13 A30 RMK A01 T03560130  RH  026%=      5-min Rain = 0
KMC1 012319Z 01001KT 36/13 A30 RMK A01 T03550129  RH  026%=      5-min Rain = 0
KMC1 012320Z 05002KT 36/13 A30 RMK A01 T03550132  RH  026%=      5-min Rain = 0
KMC1 012321Z 05003KT 36/13 A2999 RMK A01 T03590133  RH  026%=      5-min Rain = 0
KMC1 012322Z 05005KT 36/13 A2999 RMK A01 T03590132  RH  026%=      5-min Rain = 0
KMC1 012323Z 07004KT 36/13 A2999 RMK A01 T03590132  RH  026%=      5-min Rain = 0
KMC1 012324Z 04006KT 36/13 A2999 RMK A01 T03590132  RH  026%=      5-min Rain = 0
KMC1 012325Z 06006KT 36/13 A2999 RMK A01 T03590133  RH  026%=      5-min Rain = 0
KMC1 012326Z 05007KT 36/13 A2999 RMK A01 T03590131  RH  026%=      5-min Rain = 0
KMC1 012327Z 07005KT 36/13 A2999 RMK A01 T03580132  RH  026%=      5-min Rain = 0
KMC1 012328Z 08004KT 36/13 A2999 RMK A01 T03570132  RH  026%=      5-min Rain = 0
KMC1 012329Z 05003KT 36/13 A2999 RMK A01 T03560133  RH  026%=      5-min Rain = 0
KMC1 012330Z 02007KT 36/13 A2999 RMK A01 T03560133  RH  026%=      5-min Rain = 0
KMC1 012331Z 03008KT 36/13 A2999 RMK A01 T03570133  RH  026%=      5-min Rain = 0
KMC1 012332Z 04006KT 36/13 A2999 RMK A01 T03560134  RH  026%=      5-min Rain = 0
KMC1 012333Z 03009KT 36/13 A2999 RMK A01 T03570133  RH  026%=      5-min Rain = 0
KMC1 012334Z 01008KT 36/13 A2999 RMK A01 T03560132  RH  026%=      5-min Rain = 0
KMC1 012335Z 04007KT 36/13 A2999 RMK A01 T03560133  RH  026%=      5-min Rain = 0
KMC1 012336Z 04010KT 36/13 A2999 RMK A01 T03560133  RH  026%=      5-min Rain = 0
KMC1 012337Z 04010KT 36/13 A2999 RMK A01 T03550132  RH  026%=      5-min Rain = 0
KMC1 012338Z 04007KT 35/13 A2999 RMK A01 T03530132  RH  026%=      5-min Rain = 0
KMC1 012339Z 05008KT 35/13 A2999 RMK A01 T03530132  RH  026%=      5-min Rain = 0
KMC1 012340Z 04006KT 35/13 A2999 RMK A01 T03530132  RH  026%=      5-min Rain = 0
KMC1 012341Z 04005KT 35/13 A2999 RMK A01 T03520131  RH  027%=      5-min Rain = 0
KMC1 012342Z 05006KT 35/13 A2999 RMK A01 T03510132  RH  027%=      5-min Rain = 0
KMC1 012343Z 04006KT 35/13 A2999 RMK A01 T03510132  RH  027%=      5-min Rain = 0
KMC1 012344Z 04008KT 35/13 A2999 RMK A01 T03520132  RH  027%=      5-min Rain = 0
KMC1 012345Z 06006KT 35/13 A2999 RMK A01 T03510131  RH  027%=      5-min Rain = 0
KMC1 012346Z 06002KT 35/13 A2999 RMK A01 T03510132  RH  027%=      5-min Rain = 0
KMC1 012347Z 08006KT 35/13 A2999 RMK A01 T03530132  RH  027%=      5-min Rain = 0
KMC1 012348Z 08007KT 35/13 A2999 RMK A01 T03530132  RH  026%=      5-min Rain = 0
KMC1 012349Z 08005KT 35/13 A2999 RMK A01 T03530132  RH  026%=      5-min Rain = 0
KMC1 012350Z 05003KT 35/13 A2999 RMK A01 T03540132  RH  026%=      5-min Rain = 0
KMC1 012351Z 06003KT 36/13 A2999 RMK A01 T03560133  RH  026%=      5-min Rain = 0
KMC1 012352Z 04006KT 36/13 A2999 RMK A01 T03560131  RH  026%=      5-min Rain = 0
KMC1 012353Z 04007KT 35/13 A2999 RMK A01 T03530131  RH  026%=      5-min Rain = 0
KMC1 012354Z 04004KT 35/13 A2999 RMK A01 T03510130  RH  026%=      5-min Rain = 0
KMC1 012355Z 04005KT 35/13 A2999 RMK A01 T03500131  RH  027%=      5-min Rain = 0
KMC1 012356Z 06005KT 35/13 A2999 RMK A01 T03490131  RH  027%=      5-min Rain = 0
KMC1 012357Z 07002G8KT 35/13 A2999 RMK A01 T03500133  RH  027%=      5-min Rain = 0
KMC1 012358Z 11004KT 35/13 A2999 RMK A01 T03530131  RH  026%=      5-min Rain = 0
KMC1 012359Z 11002KT 35/13 A2999 RMK A01 T03520130  RH  026%=      5-min Rain = 0
KMC1 020000Z 07005KT 35/13 A2999 RMK A01 T03510130  RH  027%=      5-min Rain = 0
KMC1 020001Z 07005KT 35/13 A2999 RMK A01 T03500131  RH  027%=      5-min Rain = 0
KMC1 020002Z 06003KT 35/13 A2999 RMK A01 T03500130  RH  027%=      5-min Rain = 0
KMC1 020003Z 07003KT 35/13 A2999 RMK A01 T03500130  RH  027%=      5-min Rain = 0
KMC1 020004Z 04004KT 35/13 A2999 RMK A01 T03510131  RH  027%=      5-min Rain = 0
KMC1 020005Z 05006KT 35/13 A2999 RMK A01 T03520131  RH  027%=      5-min Rain = 0
KMC1 020006Z 04006KT 35/13 A2999 RMK A01 T03530130  RH  026%=      5-min Rain = 0
KMC1 020007Z 04006KT 35/13 A2999 RMK A01 T03510129  RH  026%=      5-min Rain = 0
KMC1 020008Z 08006KT 35/13 A2999 RMK A01 T03490129  RH  027%=      5-min Rain = 0
KMC1 020009Z 06006KT 35/13 A2999 RMK A01 T03490129  RH  027%=      5-min Rain = 0
KMC1 020010Z 06004KT 35/13 A2999 RMK A01 T03490129  RH  026%=      5-min Rain = 0
KMC1 020011Z 06005KT 35/13 A2999 RMK A01 T03490128  RH  026%=      5-min Rain = 0
KMC1 020012Z 07003KT 35/13 A2999 RMK A01 T03480129  RH  027%=      5-min Rain = 0
KMC1 020013Z 04004KT 35/13 A2999 RMK A01 T03480130  RH  027%=      5-min Rain = 0
KMC1 020014Z 03006KT 35/13 A2999 RMK A01 T03470129  RH  027%=      5-min Rain = 0
KMC1 020015Z 05007KT 35/13 A2999 RMK A01 T03450128  RH  027%=      5-min Rain = 0
KMC1 020016Z 03006KT 34/13 A2999 RMK A01 T03430128  RH  027%=      5-min Rain = 0
KMC1 020017Z 04001KT 34/13 A2999 RMK A01 T03410127  RH  027%=      5-min Rain = 0
KMC1 020018Z 03002KT 34/13 A2999 RMK A01 T03410127  RH  028%=      5-min Rain = 0
KMC1 020019Z 03005KT 34/13 A2999 RMK A01 T03400127  RH  028%=      5-min Rain = 0
KMC1 020020Z 03006KT 34/13 A2999 RMK A01 T03410129  RH  028%=      5-min Rain = 0
KMC1 020021Z 03005KT 34/13 A2999 RMK A01 T03400129  RH  028%=      5-min Rain = 0
KMC1 020022Z 04006KT 34/13 A2999 RMK A01 T03400129  RH  028%=      5-min Rain = 0
KMC1 020023Z 05005KT 34/13 A2999 RMK A01 T03410129  RH  028%=      5-min Rain = 0
KMC1 020024Z 07003KT 34/13 A2999 RMK A01 T03420129  RH  028%=      5-min Rain = 0
KMC1 020025Z 07002KT 34/13 A2999 RMK A01 T03430130  RH  028%=      5-min Rain = 0
KMC1 020026Z 02004KT 34/13 A2999 RMK A01 T03440129  RH  027%=      5-min Rain = 0
KMC1 020027Z 01006KT 35/13 A2999 RMK A01 T03450129  RH  027%=      5-min Rain = 0
KMC1 020028Z 01006KT 35/13 A2999 RMK A01 T03450128  RH  027%=      5-min Rain = 0
KMC1 020029Z 02007KT 34/13 A2999 RMK A01 T03440126  RH  027%=      5-min Rain = 0
KMC1 020030Z 02006KT 34/13 A2999 RMK A01 T03430126  RH  027%=      5-min Rain = 0
KMC1 020031Z 01005KT 34/13 A2999 RMK A01 T03420126  RH  027%=      5-min Rain = 0
KMC1 020032Z 02006KT 34/13 A2999 RMK A01 T03420126  RH  027%=      5-min Rain = 0
KMC1 020033Z 03007KT 34/13 A2999 RMK A01 T03420126  RH  027%=      5-min Rain = 0
KMC1 020034Z 02009KT 34/13 A2999 RMK A01 T03420126  RH  027%=      5-min Rain = 0
KMC1 020035Z 01008KT 34/13 A2999 RMK A01 T03420126  RH  027%=      5-min Rain = 0
KMC1 020036Z 05008KT 34/13 A2999 RMK A01 T03410127  RH  027%=      5-min Rain = 0
KMC1 020037Z 05004KT 34/13 A2999 RMK A01 T03410128  RH  028%=      5-min Rain = 0
KMC1 020038Z 06003KT 34/13 A2999 RMK A01 T03410129  RH  028%=      5-min Rain = 0
KMC1 020039Z 07003KT 34/13 A2999 RMK A01 T03410130  RH  028%=      5-min Rain = 0
KMC1 020040Z 03001KT 34/13 A2999 RMK A01 T03400130  RH  028%=      5-min Rain = 0
KMC1 020041Z 35002KT 34/13 A2999 RMK A01 T03400130  RH  028%=      5-min Rain = 0
KMC1 020042Z 02003KT 34/13 A2999 RMK A01 T03400128  RH  028%=      5-min Rain = 0
KMC1 020043Z 36002KT 34/13 A2999 RMK A01 T03400128  RH  028%=      5-min Rain = 0
KMC1 020044Z 01003KT 34/13 A2999 RMK A01 T03410126  RH  027%=      5-min Rain = 0
KMC1 020045Z 01003KT 34/13 A2999 RMK A01 T03410127  RH  027%=      5-min Rain = 0
KMC1 020046Z 02003KT 34/13 A2999 RMK A01 T03410126  RH  027%=      5-min Rain = 0
KMC1 020047Z 03003KT 34/13 A2999 RMK A01 T03420127  RH  027%=      5-min Rain = 0
KMC1 020048Z 04004KT 34/13 A2999 RMK A01 T03410128  RH  028%=      5-min Rain = 0
KMC1 020049Z 08005KT 34/13 A2999 RMK A01 T03410128  RH  028%=      5-min Rain = 0
KMC1 020050Z 04003KT 34/13 A2999 RMK A01 T03410129  RH  028%=      5-min Rain = 0
KMC1 020051Z 02003KT 34/13 A2999 RMK A01 T03410129  RH  028%=      5-min Rain = 0
KMC1 020052Z 03004KT 34/13 A2999 RMK A01 T03410130  RH  028%=      5-min Rain = 0
KMC1 020053Z 04003KT 34/13 A2999 RMK A01 T03410130  RH  028%=      5-min Rain = 0
KMC1 020054Z 04004KT 34/13 A2999 RMK A01 T03410130  RH  028%=      5-min Rain = 0
KMC1 020055Z 04007KT 34/13 A2999 RMK A01 T03410130  RH  028%=      5-min Rain = 0
KMC1 020056Z 03007KT 34/13 A2999 RMK A01 T03400129  RH  028%=      5-min Rain = 0
KMC1 020057Z 03006KT 34/13 A2999 RMK A01 T03380128  RH  028%=      5-min Rain = 0
KMC1 020058Z 03005KT 34/13 A2999 RMK A01 T03370129  RH  028%=      5-min Rain = 0
KMC1 020059Z 03006KT 34/13 A2999 RMK A01 T03350129  RH  029%=      5-min Rain = 0
KMC1 020100Z 04005KT 33/13 A2999 RMK A01 T03330128  RH  029%=      5-min Rain = 0
KMC1 020101Z 03007KT 33/13 A30 RMK A01 T03320129  RH  029%=      5-min Rain = 0
KMC1 020102Z 04007KT 33/13 A30 RMK A01 T03310128  RH  029%=      5-min Rain = 0
KMC1 020103Z 05007KT 33/13 A30 RMK A01 T03310128  RH  029%=      5-min Rain = 0
KMC1 020104Z 06005KT 33/13 A30 RMK A01 T03300128  RH  029%=      5-min Rain = 0
KMC1 020105Z 06003KT 33/13 A30 RMK A01 T03300128  RH  029%=      5-min Rain = 0
KMC1 020106Z 07005KT 33/13 A30 RMK A01 T03300128  RH  029%=      5-min Rain = 0
KMC1 020107Z 06003KT 33/13 A30 RMK A01 T03290127  RH  029%=      5-min Rain = 0
KMC1 020108Z 06004KT 33/13 A30 RMK A01 T03280127  RH  029%=      5-min Rain = 0
KMC1 020109Z 06004KT 33/13 A30 RMK A01 T03270126  RH  029%=      5-min Rain = 0
KMC1 020110Z 07004KT 33/13 A30 RMK A01 T03270126  RH  030%=      5-min Rain = 0
KMC1 020111Z 07003KT 33/13 A30 RMK A01 T03260126  RH  030%=      5-min Rain = 0
KMC1 020112Z 07004KT 33/13 A30 RMK A01 T03260126  RH  030%=      5-min Rain = 0
KMC1 020113Z 08005G10KT 33/13 A30 RMK A01 T03250126  RH  030%=      5-min Rain = 0
KMC1 020114Z 07005KT 33/13 A30 RMK A01 T03250126  RH  030%=      5-min Rain = 0
KMC1 020115Z 07004KT 32/13 A30 RMK A01 T03240125  RH  030%=      5-min Rain = 0
KMC1 020116Z 07002KT 32/13 A30 RMK A01 T03230125  RH  030%=      5-min Rain = 0
KMC1 020117Z 07003KT 32/13 A2999 RMK A01 T03230125  RH  030%=      5-min Rain = 0
KMC1 020118Z 07003KT 32/13 A2999 RMK A01 T03220125  RH  030%=      5-min Rain = 0
KMC1 020119Z 06003KT 32/13 A2999 RMK A01 T03220125  RH  030%=      5-min Rain = 0
KMC1 020120Z 08003KT 32/13 A30 RMK A01 T03210125  RH  030%=      5-min Rain = 0
KMC1 020121Z 07003KT 32/13 A30 RMK A01 T03210125  RH  030%=      5-min Rain = 0
KMC1 020122Z 08003KT 32/13 A30 RMK A01 T03200125  RH  030%=      5-min Rain = 0
KMC1 020123Z 06003KT 32/13 A30 RMK A01 T03200125  RH  030%=      5-min Rain = 0
KMC1 020124Z 07004KT 32/13 A30 RMK A01 T03190125  RH  030%=      5-min Rain = 0
KMC1 020125Z 06003KT 32/12 A30 RMK A01 T03190124  RH  031%=      5-min Rain = 0
KMC1 020126Z 07003KT 32/13 A30 RMK A01 T03180125  RH  031%=      5-min Rain = 0
KMC1 020127Z 07003KT 32/13 A30 RMK A01 T03180125  RH  031%=      5-min Rain = 0
KMC1 020128Z 06003KT 32/13 A30 RMK A01 T03170125  RH  031%=      5-min Rain = 0
KMC1 020129Z 06003KT 32/13 A30 RMK A01 T03170125  RH  031%=      5-min Rain = 0
KMC1 020130Z 06003KT 32/13 A30 RMK A01 T03160125  RH  031%=      5-min Rain = 0
KMC1 020131Z 06003KT 32/12 A30 RMK A01 T03160124  RH  031%=      5-min Rain = 0
KMC1 020132Z 06003KT 32/13 A30 RMK A01 T03150125  RH  031%=      5-min Rain = 0
KMC1 020133Z 06003KT 31/12 A30 RMK A01 T03140124  RH  031%=      5-min Rain = 0
KMC1 020134Z 06003KT 31/12 A30 RMK A01 T03140124  RH  031%=      5-min Rain = 0
KMC1 020135Z 06002KT 31/12 A30 RMK A01 T03130124  RH  031%=      5-min Rain = 0
KMC1 020136Z 06002KT 31/12 A30 RMK A01 T03130124  RH  032%=      5-min Rain = 0
KMC1 020137Z 07002KT 31/12 A30 RMK A01 T03120124  RH  032%=      5-min Rain = 0
KMC1 020138Z 07003KT 31/12 A30 RMK A01 T03110124  RH  032%=      5-min Rain = 0
KMC1 020139Z 07003KT 31/13 A30 RMK A01 T03100125  RH  032%=      5-min Rain = 0
KMC1 020140Z 07003KT 31/12 A30 RMK A01 T03090124  RH  032%=      5-min Rain = 0
KMC1 020141Z 07003KT 31/12 A30 RMK A01 T03080124  RH  032%=      5-min Rain = 0
KMC1 020142Z 07003KT 31/12 A30 RMK A01 T03070124  RH  032%=      5-min Rain = 0
KMC1 020143Z 07004KT 31/12 A30 RMK A01 T03070124  RH  033%=      5-min Rain = 0
KMC1 020144Z 07003KT 31/12 A30 RMK A01 T03060124  RH  033%=      5-min Rain = 0
KMC1 020145Z 07003KT 31/12 A30 RMK A01 T03060123  RH  033%=      5-min Rain = 0
KMC1 020146Z 06003KT 31/12 A30 RMK A01 T03050123  RH  033%=      5-min Rain = 0
KMC1 020147Z 07003KT 31/12 A30 RMK A01 T03050123  RH  033%=      5-min Rain = 0
KMC1 020148Z 07003KT 30/12 A3001 RMK A01 T03040123  RH  033%=      5-min Rain = 0
KMC1 020149Z 07003KT 30/12 A3001 RMK A01 T03040123  RH  033%=      5-min Rain = 0
KMC1 020150Z 07002KT 30/12 A3001 RMK A01 T03030123  RH  033%=      5-min Rain = 0
KMC1 020151Z 07003KT 30/12 A3001 RMK A01 T03030123  RH  033%=      5-min Rain = 0
KMC1 020152Z 08002KT 30/12 A3001 RMK A01 T03020123  RH  033%=      5-min Rain = 0
KMC1 020153Z 08003KT 30/12 A3001 RMK A01 T03020123  RH  033%=      5-min Rain = 0
KMC1 020154Z 08003KT 30/12 A3001 RMK A01 T03010123  RH  034%=      5-min Rain = 0
KMC1 020155Z 08003KT 30/12 A3001 RMK A01 T03010124  RH  034%=      5-min Rain = 0
KMC1 020156Z 09002KT 30/12 A3001 RMK A01 T03000124  RH  034%=      5-min Rain = 0
KMC1 020157Z 09003KT 30/12 A3001 RMK A01 T03000124  RH  034%=      5-min Rain = 0
KMC1 020158Z 10003KT 30/12 A3001 RMK A01 T02990124  RH  034%=      5-min Rain = 0
KMC1 020159Z 10003KT 30/12 A3001 RMK A01 T02990124  RH  034%=      5-min Rain = 0
KMC1 020200Z 11003KT 30/12 A3001 RMK A01 T02980123  RH  034%=      5-min Rain = 0
KMC1 020201Z 11003KT 30/12 A3001 RMK A01 T02970123  RH  034%=      5-min Rain = 0
KMC1 020202Z 11003KT 30/12 A3001 RMK A01 T02970124  RH  034%=      5-min Rain = 0
KMC1 020203Z 12003KT 30/12 A3001 RMK A01 T02960123  RH  035%=      5-min Rain = 0
KMC1 020204Z 12003KT 30/12 A3001 RMK A01 T02950123  RH  035%=      5-min Rain = 0
KMC1 020205Z 13003KT 29/12 A3002 RMK A01 T02940123  RH  035%=      5-min Rain = 0
KMC1 020206Z 13003KT 29/12 A3002 RMK A01 T02930123  RH  035%=      5-min Rain = 0
KMC1 020207Z 14004KT 29/12 A3002 RMK A01 T02930123  RH  035%=      5-min Rain = 0
KMC1 020208Z 15003KT 29/12 A3002 RMK A01 T02920123  RH  035%=      5-min Rain = 0
KMC1 020209Z 15003KT 29/12 A3002 RMK A01 T02920123  RH  035%=      5-min Rain = 0
KMC1 020210Z 15003KT 29/12 A3002 RMK A01 T02920123  RH  035%=      5-min Rain = 0
KMC1 020211Z 15004KT 29/12 A3002 RMK A01 T02910123  RH  035%=      5-min Rain = 0
KMC1 020212Z 15003KT 29/12 A3002 RMK A01 T02900123  RH  036%=      5-min Rain = 0
KMC1 020213Z 14003KT 29/12 A3002 RMK A01 T02890122  RH  036%=      5-min Rain = 0
KMC1 020214Z 13004KT 29/12 A3002 RMK A01 T02880122  RH  036%=      5-min Rain = 0
KMC1 020215Z 14004KT 29/12 A3002 RMK A01 T02880122  RH  036%=      5-min Rain = 0
KMC1 020216Z 14004KT 29/12 A3002 RMK A01 T02870122  RH  036%=      5-min Rain = 0
KMC1 020217Z 13005KT 29/12 A3002 RMK A01 T02870122  RH  036%=      5-min Rain = 0
KMC1 020218Z 13005KT 29/12 A3002 RMK A01 T02870122  RH  036%=      5-min Rain = 0
KMC1 020219Z 13005KT 29/12 A3002 RMK A01 T02870122  RH  036%=      5-min Rain = 0
KMC1 020220Z 13005KT 29/12 A3002 RMK A01 T02870122  RH  036%=      5-min Rain = 0
KMC1 020221Z 13005KT 29/12 A3002 RMK A01 T02870122  RH  036%=      5-min Rain = 0
KMC1 020222Z 13005KT 29/12 A3002 RMK A01 T02870122  RH  036%=      5-min Rain = 0
KMC1 020223Z 13005KT 29/12 A3002 RMK A01 T02860122  RH  036%=      5-min Rain = 0
KMC1 020224Z 13005KT 29/12 A3002 RMK A01 T02860122  RH  036%=      5-min Rain = 0
KMC1 020225Z 13005KT 29/12 A3002 RMK A01 T02860122  RH  036%=      5-min Rain = 0
KMC1 020226Z 13005KT 29/12 A3002 RMK A01 T02860122  RH  036%=      5-min Rain = 0
KMC1 020227Z 12006KT 29/12 A3002 RMK A01 T02860122  RH  036%=      5-min Rain = 0
KMC1 020228Z 12005KT 29/12 A3002 RMK A01 T02860123  RH  036%=      5-min Rain = 0
KMC1 020229Z 11005KT 29/12 A3002 RMK A01 T02860123  RH  036%=      5-min Rain = 0
KMC1 020230Z 10005KT 29/12 A3002 RMK A01 T02870123  RH  036%=      5-min Rain = 0
KMC1 020231Z 10004KT 29/12 A3002 RMK A01 T02870124  RH  036%=      5-min Rain = 0
KMC1 020232Z 11005KT 29/12 A3002 RMK A01 T02870124  RH  037%=      5-min Rain = 0
KMC1 020233Z 11005KT 29/12 A3002 RMK A01 T02870124  RH  037%=      5-min Rain = 0
KMC1 020234Z 12005KT 29/12 A3002 RMK A01 T02860124  RH  037%=      5-min Rain = 0
KMC1 020235Z 12005KT 29/12 A3002 RMK A01 T02870124  RH  037%=      5-min Rain = 0
KMC1 020236Z 12004KT 29/12 A3002 RMK A01 T02870124  RH  037%=      5-min Rain = 0
KMC1 020237Z 12004KT 29/12 A3003 RMK A01 T02870124  RH  037%=      5-min Rain = 0
KMC1 020238Z 13005KT 29/12 A3003 RMK A01 T02860124  RH  037%=      5-min Rain = 0
KMC1 020239Z 13005KT 29/12 A3003 RMK A01 T02860124  RH  037%=      5-min Rain = 0
KMC1 020240Z 13005KT 29/12 A3003 RMK A01 T02850124  RH  037%=      5-min Rain = 0
KMC1 020241Z 13005KT 28/12 A3003 RMK A01 T02840124  RH  037%=      5-min Rain = 0
KMC1 020242Z 13005KT 28/12 A3003 RMK A01 T02830124  RH  037%=      5-min Rain = 0
KMC1 020243Z 12005KT 28/13 A3003 RMK A01 T02830125  RH  037%=      5-min Rain = 0
KMC1 020244Z 12005KT 28/13 A3003 RMK A01 T02830125  RH  038%=      5-min Rain = 0
KMC1 020245Z 12004KT 28/13 A3003 RMK A01 T02820125  RH  038%=      5-min Rain = 0
KMC1 020246Z 12005KT 28/13 A3003 RMK A01 T02820125  RH  038%=      5-min Rain = 0
KMC1 020247Z 13004KT 28/13 A3003 RMK A01 T02820126  RH  038%=      5-min Rain = 0
KMC1 020248Z 12005KT 28/13 A3003 RMK A01 T02820126  RH  038%=      5-min Rain = 0
KMC1 020249Z 13005KT 28/13 A3003 RMK A01 T02820126  RH  038%=      5-min Rain = 0
KMC1 020250Z 13005KT 28/13 A3003 RMK A01 T02820126  RH  038%=      5-min Rain = 0
KMC1 020251Z 13005KT 28/13 A3003 RMK A01 T02810126  RH  038%=      5-min Rain = 0
KMC1 020252Z 13005KT 28/13 A3003 RMK A01 T02810126  RH  038%=      5-min Rain = 0
KMC1 020253Z 13005KT 28/13 A3003 RMK A01 T02810127  RH  038%=      5-min Rain = 0
KMC1 020254Z 13005KT 28/13 A3003 RMK A01 T02810126  RH  038%=      5-min Rain = 0
KMC1 020255Z 12005KT 28/13 A3003 RMK A01 T02810127  RH  039%=      5-min Rain = 0
KMC1 020256Z 12005KT 28/13 A3003 RMK A01 T02810127  RH  039%=      5-min Rain = 0
KMC1 020257Z 12005KT 28/13 A3003 RMK A01 T02810128  RH  039%=      5-min Rain = 0
KMC1 020258Z 12005KT 28/13 A3003 RMK A01 T02810127  RH  039%=      5-min Rain = 0
KMC1 020259Z 12005KT 28/13 A3003 RMK A01 T02810128  RH  039%=      5-min Rain = 0
KMC1 020300Z 12005KT 28/13 A3003 RMK A01 T02820128  RH  039%=      5-min Rain = 0
KMC1 020301Z 12006KT 28/13 A3003 RMK A01 T02820128  RH  039%=      5-min Rain = 0
KMC1 020302Z 12006KT 28/13 A3003 RMK A01 T02820128  RH  039%=      5-min Rain = 0
KMC1 020303Z 12006KT 28/13 A3003 RMK A01 T02820128  RH  039%=      5-min Rain = 0
KMC1 020304Z 12006KT 28/13 A3003 RMK A01 T02820128  RH  039%=      5-min Rain = 0
KMC1 020305Z 12006KT 28/13 A3003 RMK A01 T02830128  RH  039%=      5-min Rain = 0
KMC1 020306Z 12006KT 28/13 A3003 RMK A01 T02830129  RH  038%=      5-min Rain = 0
KMC1 020307Z 11005KT 28/13 A3003 RMK A01 T02840129  RH  038%=      5-min Rain = 0
KMC1 020308Z 11006KT 28/13 A3003 RMK A01 T02830128  RH  038%=      5-min Rain = 0
KMC1 020309Z 12006KT 28/13 A3003 RMK A01 T02840129  RH  038%=      5-min Rain = 0
KMC1 020310Z 11005KT 28/13 A3003 RMK A01 T02840129  RH  038%=      5-min Rain = 0
KMC1 020311Z 11005KT 28/13 A3003 RMK A01 T02830129  RH  038%=      5-min Rain = 0
KMC1 020312Z 12005KT 28/13 A3003 RMK A01 T02830129  RH  039%=      5-min Rain = 0
KMC1 020313Z 11005KT 28/13 A3003 RMK A01 T02830129  RH  039%=      5-min Rain = 0
KMC1 020314Z 11006KT 28/13 A3003 RMK A01 T02830129  RH  039%=      5-min Rain = 0
KMC1 020315Z 10005KT 28/13 A3004 RMK A01 T02830129  RH  039%=      5-min Rain = 0
KMC1 020316Z 10005KT 28/13 A3004 RMK A01 T02820129  RH  039%=      5-min Rain = 0
KMC1 020317Z 10005KT 28/13 A3003 RMK A01 T02810128  RH  039%=      5-min Rain = 0
KMC1 020318Z 10004KT 28/13 A3003 RMK A01 T02800128  RH  039%=      5-min Rain = 0
KMC1 020319Z 10005KT 28/13 A3003 RMK A01 T02780128  RH  040%=      5-min Rain = 0
KMC1 020320Z 10005KT 28/13 A3003 RMK A01 T02770128  RH  040%=      5-min Rain = 0
KMC1 020321Z 11005KT 28/13 A3004 RMK A01 T02750127  RH  040%=      5-min Rain = 0
KMC1 020322Z 10005KT 27/13 A3004 RMK A01 T02740128  RH  040%=      5-min Rain = 0
KMC1 020323Z 10004KT 27/13 A3004 RMK A01 T02730127  RH  041%=      5-min Rain = 0
KMC1 020324Z 10004KT 27/13 A3004 RMK A01 T02720127  RH  041%=      5-min Rain = 0
KMC1 020325Z 10004KT 27/13 A3004 RMK A01 T02700127  RH  041%=      5-min Rain = 0
KMC1 020326Z 10003KT 27/13 A3004 RMK A01 T02700127  RH  041%=      5-min Rain = 0
KMC1 020327Z 10003KT 27/13 A3004 RMK A01 T02690127  RH  041%=      5-min Rain = 0
KMC1 020328Z 10003KT 27/13 A3004 RMK A01 T02680127  RH  042%=      5-min Rain = 0
KMC1 020329Z 10003KT 27/13 A3004 RMK A01 T02670127  RH  042%=      5-min Rain = 0
KMC1 020330Z 10004KT 27/13 A3004 RMK A01 T02660127  RH  042%=      5-min Rain = 0
KMC1 020331Z 10004KT 27/13 A3004 RMK A01 T02660127  RH  042%=      5-min Rain = 0
KMC1 020332Z 10004KT 27/13 A3004 RMK A01 T02650127  RH  042%=      5-min Rain = 0
KMC1 020333Z 10003KT 26/13 A3004 RMK A01 T02640127  RH  043%=      5-min Rain = 0
KMC1 020334Z 10003KT 26/13 A3004 RMK A01 T02630127  RH  043%=      5-min Rain = 0
KMC1 020335Z 09003KT 26/13 A3004 RMK A01 T02630127  RH  043%=      5-min Rain = 0
KMC1 020336Z 09003KT 26/13 A3004 RMK A01 T02620127  RH  043%=      5-min Rain = 0
KMC1 020337Z 09002KT 26/13 A3004 RMK A01 T02610127  RH  043%=      5-min Rain = 0
KMC1 020338Z 09002KT 26/13 A3004 RMK A01 T02610127  RH  043%=      5-min Rain = 0
KMC1 020339Z 09002KT 26/13 A3004 RMK A01 T02600126  RH  044%=      5-min Rain = 0
KMC1 020340Z 09002KT 26/13 A3004 RMK A01 T02590126  RH  044%=      5-min Rain = 0
KMC1 020341Z 08002KT 26/13 A3004 RMK A01 T02590127  RH  044%=      5-min Rain = 0
KMC1 020342Z 08003KT 26/13 A3004 RMK A01 T02580127  RH  044%=      5-min Rain = 0
KMC1 020343Z 09003KT 26/13 A3004 RMK A01 T02570126  RH  044%=      5-min Rain = 0
KMC1 020344Z 09003KT 26/13 A3004 RMK A01 T02570126  RH  044%=      5-min Rain = 0
KMC1 020345Z 09003KT 26/13 A3005 RMK A01 T02560126  RH  044%=      5-min Rain = 0
KMC1 020346Z 10003KT 26/13 A3005 RMK A01 T02550126  RH  045%=      5-min Rain = 0
KMC1 020347Z 10004KT 26/13 A3005 RMK A01 T02550126  RH  045%=      5-min Rain = 0
KMC1 020348Z 10004KT 26/13 A3005 RMK A01 T02550126  RH  045%=      5-min Rain = 0
KMC1 020349Z 10004KT 26/13 A3005 RMK A01 T02550126  RH  045%=      5-min Rain = 0
KMC1 020350Z 10004KT 26/13 A3005 RMK A01 T02550127  RH  045%=      5-min Rain = 0
KMC1 020351Z 10003KT 25/13 A3005 RMK A01 T02540126  RH  045%=      5-min Rain = 0
KMC1 020352Z 09003KT 25/13 A3005 RMK A01 T02540126  RH  045%=      5-min Rain = 0
KMC1 020353Z 10003KT 25/13 A3005 RMK A01 T02540126  RH  045%=      5-min Rain = 0
KMC1 020354Z 10003KT 25/13 A3005 RMK A01 T02530126  RH  045%=      5-min Rain = 0
KMC1 020355Z 10003KT 25/13 A3005 RMK A01 T02530126  RH  045%=      5-min Rain = 0
KMC1 020356Z 09003KT 25/13 A3005 RMK A01 T02520126  RH  045%=      5-min Rain = 0
KMC1 020357Z 10004KT 25/13 A3005 RMK A01 T02510126  RH  046%=      5-min Rain = 0
KMC1 020358Z 10004KT 25/13 A3005 RMK A01 T02510126  RH  046%=      5-min Rain = 0
KMC1 020359Z 10004KT 25/13 A3005 RMK A01 T02500126  RH  046%=      5-min Rain = 0
KMC1 020400Z 10005KT 25/13 A3005 RMK A01 T02490126  RH  046%=      5-min Rain = 0
KMC1 020401Z 10005KT 25/13 A3005 RMK A01 T02490126  RH  046%=      5-min Rain = 0
KMC1 020402Z 10005KT 25/13 A3005 RMK A01 T02490126  RH  046%=      5-min Rain = 0
KMC1 020403Z 10005KT 25/13 A3005 RMK A01 T02490127  RH  047%=      5-min Rain = 0
KMC1 020404Z 10005KT 25/13 A3005 RMK A01 T02480126  RH  047%=      5-min Rain = 0
KMC1 020405Z 10005KT 25/13 A3005 RMK A01 T02490127  RH  047%=      5-min Rain = 0
KMC1 020406Z 10005KT 25/13 A3005 RMK A01 T02490127  RH  047%=      5-min Rain = 0
KMC1 020407Z 10004KT 25/13 A3005 RMK A01 T02490127  RH  047%=      5-min Rain = 0
KMC1 020408Z 10005KT 25/13 A3005 RMK A01 T02480127  RH  047%=      5-min Rain = 0
KMC1 020409Z 10004KT 25/13 A3005 RMK A01 T02490127  RH  047%=      5-min Rain = 0
KMC1 020410Z 10004KT 25/13 A3005 RMK A01 T02490127  RH  047%=      5-min Rain = 0
KMC1 020411Z 10004KT 25/13 A3005 RMK A01 T02490127  RH  047%=      5-min Rain = 0
KMC1 020412Z 10004KT 25/13 A3005 RMK A01 T02490127  RH  047%=      5-min Rain = 0
KMC1 020413Z 10004KT 25/13 A3005 RMK A01 T02490127  RH  047%=      5-min Rain = 0
KMC1 020414Z 10004KT 25/13 A3005 RMK A01 T02490127  RH  047%=      5-min Rain = 0
KMC1 020415Z 11004KT 25/13 A3005 RMK A01 T02500127  RH  047%=      5-min Rain = 0
KMC1 020416Z 11004KT 25/13 A3005 RMK A01 T02500128  RH  047%=      5-min Rain = 0
KMC1 020417Z 10004KT 25/13 A3005 RMK A01 T02490128  RH  047%=      5-min Rain = 0
KMC1 020418Z 10004KT 25/13 A3006 RMK A01 T02500128  RH  047%=      5-min Rain = 0
KMC1 020419Z 10004KT 25/13 A3006 RMK A01 T02500128  RH  047%=      5-min Rain = 0
KMC1 020420Z 10004KT 25/13 A3006 RMK A01 T02500128  RH  047%=      5-min Rain = 0
KMC1 020421Z 10003KT 25/13 A3006 RMK A01 T02500128  RH  047%=      5-min Rain = 0
KMC1 020422Z 10003KT 25/13 A3005 RMK A01 T02500128  RH  047%=      5-min Rain = 0
KMC1 020423Z 10003KT 25/13 A3005 RMK A01 T02500128  RH  047%=      5-min Rain = 0
KMC1 020424Z 10003KT 25/13 A3005 RMK A01 T02500128  RH  047%=      5-min Rain = 0
KMC1 020425Z 10003KT 25/13 A3005 RMK A01 T02490128  RH  047%=      5-min Rain = 0
KMC1 020426Z 09003KT 25/13 A3005 RMK A01 T02490128  RH  047%=      5-min Rain = 0
KMC1 020427Z 08003KT 25/13 A3005 RMK A01 T02490128  RH  047%=      5-min Rain = 0
KMC1 020428Z 07003KT 25/13 A3005 RMK A01 T02490128  RH  047%=      5-min Rain = 0
KMC1 020429Z 06002KT 25/13 A3005 RMK A01 T02490128  RH  047%=      5-min Rain = 0
KMC1 020430Z 06002KT 25/13 A3005 RMK A01 T02480128  RH  047%=      5-min Rain = 0
KMC1 020431Z 06002KT 25/13 A3005 RMK A01 T02480128  RH  047%=      5-min Rain = 0
KMC1 020432Z 07002KT 25/13 A3005 RMK A01 T02470127  RH  047%=      5-min Rain = 0
KMC1 020433Z 07002KT 25/13 A3005 RMK A01 T02460127  RH  047%=      5-min Rain = 0
KMC1 020434Z 07002KT 25/13 A3005 RMK A01 T02460127  RH  048%=      5-min Rain = 0
KMC1 020435Z 07003KT 25/13 A3006 RMK A01 T02450127  RH  048%=      5-min Rain = 0
KMC1 020436Z 07003KT 24/13 A3006 RMK A01 T02440127  RH  048%=      5-min Rain = 0
KMC1 020437Z 07003KT 24/13 A3006 RMK A01 T02440127  RH  048%=      5-min Rain = 0
KMC1 020438Z 07003KT 24/13 A3006 RMK A01 T02430127  RH  048%=      5-min Rain = 0
KMC1 020439Z 07003KT 24/13 A3006 RMK A01 T02420127  RH  048%=      5-min Rain = 0
KMC1 020440Z 07003KT 24/13 A3006 RMK A01 T02410127  RH  049%=      5-min Rain = 0
KMC1 020441Z 07003KT 24/13 A3006 RMK A01 T02410128  RH  049%=      5-min Rain = 0
KMC1 020442Z 07003KT 24/13 A3006 RMK A01 T02400128  RH  049%=      5-min Rain = 0
KMC1 020443Z 06003KT 24/13 A3006 RMK A01 T02400128  RH  049%=      5-min Rain = 0
KMC1 020444Z 06002KT 24/13 A3006 RMK A01 T02400128  RH  050%=      5-min Rain = 0
KMC1 020445Z 05003KT 24/13 A3006 RMK A01 T02390128  RH  050%=      5-min Rain = 0
KMC1 020446Z 06003KT 24/13 A3006 RMK A01 T02390128  RH  050%=      5-min Rain = 0
KMC1 020447Z 06004KT 24/13 A3006 RMK A01 T02390127  RH  050%=      5-min Rain = 0
KMC1 020448Z 06003KT 24/13 A3006 RMK A01 T02380127  RH  050%=      5-min Rain = 0
KMC1 020449Z 06004KT 24/13 A3006 RMK A01 T02370127  RH  050%=      5-min Rain = 0
KMC1 020450Z 07004KT 24/13 A3006 RMK A01 T02370127  RH  050%=      5-min Rain = 0
KMC1 020451Z 06003KT 24/13 A3006 RMK A01 T02370127  RH  050%=      5-min Rain = 0
KMC1 020452Z 07003KT 24/13 A3006 RMK A01 T02370128  RH  050%=      5-min Rain = 0
KMC1 020453Z 06004KT 24/13 A3006 RMK A01 T02370128  RH  050%=      5-min Rain = 0
KMC1 020454Z 07004KT 24/13 A3006 RMK A01 T02370128  RH  050%=      5-min Rain = 0
KMC1 020455Z 07004KT 24/13 A3006 RMK A01 T02370128  RH  050%=      5-min Rain = 0
KMC1 020456Z 07004KT 24/13 A3006 RMK A01 T02360128  RH  050%=      5-min Rain = 0
KMC1 020457Z 07004KT 24/13 A3006 RMK A01 T02360127  RH  050%=      5-min Rain = 0
KMC1 020458Z 07004KT 24/13 A3006 RMK A01 T02360128  RH  051%=      5-min Rain = 0
KMC1 020459Z 07004KT 24/13 A3006 RMK A01 T02360128  RH  051%=      5-min Rain = 0

Page generated in 0.1175 seconds.